<?xml version="1.0" encoding="UTF-8" standalone="no" ?>
<gpx xmlns="http://www.topografix.com/GPX/1/1" xmlns:xsi="http://www.w3.org/2001/XMLSchema-instance" xsi:schemaLocation="http://www.topografix.com/GPX/1/1 http://www.topografix.com/GPX/1/1/gpx.xsd" version="1.1" creator="VisuGPX - https://www.visugpx.com">
  <metadata>
    <name>Piste entre la Gineste et le parc de Vabre</name>
    <desc><![CDATA[Sortie sur les pistes de promenade ruthénoises entre la Gineste et le parc de Vabre.]]></desc>
  </metadata>
  <trk>
    <name><![CDATA[2013-06-26T17:56:36Z]]></name>
    <trkseg>
      <trkpt lat="44.36399" lon="2.56633">
        <ele>531</ele>
        <time>2013-06-26T17:56:36Z</time>
      </trkpt>
      <trkpt lat="44.36399" lon="2.56632">
        <ele>531</ele>
        <time>2013-06-26T17:56:37Z</time>
      </trkpt>
      <trkpt lat="44.36401" lon="2.56624">
        <ele>531</ele>
        <time>2013-06-26T17:56:40Z</time>
      </trkpt>
      <trkpt lat="44.36409" lon="2.5661">
        <ele>531</ele>
        <time>2013-06-26T17:56:45Z</time>
      </trkpt>
      <trkpt lat="44.36414" lon="2.56601">
        <ele>532</ele>
        <time>2013-06-26T17:56:49Z</time>
      </trkpt>
      <trkpt lat="44.36423" lon="2.56586">
        <ele>531</ele>
        <time>2013-06-26T17:56:55Z</time>
      </trkpt>
      <trkpt lat="44.36426" lon="2.56581">
        <ele>532</ele>
        <time>2013-06-26T17:56:57Z</time>
      </trkpt>
      <trkpt lat="44.36438" lon="2.56559">
        <ele>533</ele>
        <time>2013-06-26T17:57:05Z</time>
      </trkpt>
      <trkpt lat="44.36443" lon="2.56546">
        <ele>533</ele>
        <time>2013-06-26T17:57:10Z</time>
      </trkpt>
      <trkpt lat="44.36451" lon="2.5653">
        <ele>534</ele>
        <time>2013-06-26T17:57:16Z</time>
      </trkpt>
      <trkpt lat="44.36453" lon="2.56522">
        <ele>534</ele>
        <time>2013-06-26T17:57:19Z</time>
      </trkpt>
      <trkpt lat="44.3646" lon="2.56508">
        <ele>534</ele>
        <time>2013-06-26T17:57:24Z</time>
      </trkpt>
      <trkpt lat="44.36468" lon="2.56497">
        <ele>536</ele>
        <time>2013-06-26T17:57:28Z</time>
      </trkpt>
      <trkpt lat="44.36474" lon="2.56487">
        <ele>536</ele>
        <time>2013-06-26T17:57:32Z</time>
      </trkpt>
      <trkpt lat="44.36476" lon="2.56481">
        <ele>536</ele>
        <time>2013-06-26T17:57:34Z</time>
      </trkpt>
      <trkpt lat="44.36486" lon="2.56465">
        <ele>536</ele>
        <time>2013-06-26T17:57:40Z</time>
      </trkpt>
      <trkpt lat="44.36493" lon="2.56446">
        <ele>536</ele>
        <time>2013-06-26T17:57:47Z</time>
      </trkpt>
      <trkpt lat="44.36501" lon="2.56431">
        <ele>535</ele>
        <time>2013-06-26T17:57:53Z</time>
      </trkpt>
      <trkpt lat="44.36515" lon="2.56423">
        <ele>535</ele>
        <time>2013-06-26T17:57:57Z</time>
      </trkpt>
      <trkpt lat="44.36524" lon="2.5642">
        <ele>535</ele>
        <time>2013-06-26T17:58:00Z</time>
      </trkpt>
      <trkpt lat="44.36537" lon="2.5641">
        <ele>536</ele>
        <time>2013-06-26T17:58:06Z</time>
      </trkpt>
      <trkpt lat="44.36544" lon="2.56393">
        <ele>536</ele>
        <time>2013-06-26T17:58:12Z</time>
      </trkpt>
      <trkpt lat="44.36546" lon="2.56379">
        <ele>537</ele>
        <time>2013-06-26T17:58:17Z</time>
      </trkpt>
      <trkpt lat="44.36549" lon="2.56365">
        <ele>537</ele>
        <time>2013-06-26T17:58:22Z</time>
      </trkpt>
      <trkpt lat="44.36559" lon="2.56368">
        <ele>537</ele>
        <time>2013-06-26T17:58:26Z</time>
      </trkpt>
      <trkpt lat="44.36562" lon="2.56382">
        <ele>537</ele>
        <time>2013-06-26T17:58:31Z</time>
      </trkpt>
      <trkpt lat="44.36562" lon="2.56385">
        <ele>537</ele>
        <time>2013-06-26T17:58:32Z</time>
      </trkpt>
      <trkpt lat="44.3656" lon="2.56404">
        <ele>536</ele>
        <time>2013-06-26T17:58:39Z</time>
      </trkpt>
      <trkpt lat="44.3656" lon="2.56424">
        <ele>535</ele>
        <time>2013-06-26T17:58:45Z</time>
      </trkpt>
      <trkpt lat="44.36565" lon="2.56444">
        <ele>534</ele>
        <time>2013-06-26T17:58:52Z</time>
      </trkpt>
      <trkpt lat="44.36573" lon="2.56462">
        <ele>534</ele>
        <time>2013-06-26T17:58:59Z</time>
      </trkpt>
      <trkpt lat="44.36581" lon="2.56473">
        <ele>533</ele>
        <time>2013-06-26T17:59:04Z</time>
      </trkpt>
      <trkpt lat="44.36586" lon="2.56481">
        <ele>535</ele>
        <time>2013-06-26T17:59:08Z</time>
      </trkpt>
      <trkpt lat="44.36589" lon="2.56492">
        <ele>534</ele>
        <time>2013-06-26T17:59:12Z</time>
      </trkpt>
      <trkpt lat="44.36589" lon="2.56507">
        <ele>533</ele>
        <time>2013-06-26T17:59:17Z</time>
      </trkpt>
      <trkpt lat="44.36587" lon="2.56526">
        <ele>534</ele>
        <time>2013-06-26T17:59:23Z</time>
      </trkpt>
      <trkpt lat="44.36587" lon="2.56543">
        <ele>534</ele>
        <time>2013-06-26T17:59:28Z</time>
      </trkpt>
      <trkpt lat="44.36588" lon="2.56558">
        <ele>534</ele>
        <time>2013-06-26T17:59:33Z</time>
      </trkpt>
      <trkpt lat="44.36587" lon="2.56578">
        <ele>532</ele>
        <time>2013-06-26T17:59:39Z</time>
      </trkpt>
      <trkpt lat="44.36588" lon="2.56584">
        <ele>531</ele>
        <time>2013-06-26T17:59:41Z</time>
      </trkpt>
      <trkpt lat="44.36591" lon="2.56606">
        <ele>532</ele>
        <time>2013-06-26T17:59:49Z</time>
      </trkpt>
      <trkpt lat="44.36592" lon="2.56608">
        <ele>532</ele>
        <time>2013-06-26T17:59:50Z</time>
      </trkpt>
      <trkpt lat="44.36593" lon="2.56616">
        <ele>532</ele>
        <time>2013-06-26T17:59:54Z</time>
      </trkpt>
      <trkpt lat="44.36601" lon="2.56632">
        <ele>532</ele>
        <time>2013-06-26T18:00:01Z</time>
      </trkpt>
      <trkpt lat="44.36604" lon="2.56643">
        <ele>531</ele>
        <time>2013-06-26T18:00:05Z</time>
      </trkpt>
      <trkpt lat="44.36606" lon="2.56663">
        <ele>531</ele>
        <time>2013-06-26T18:00:11Z</time>
      </trkpt>
      <trkpt lat="44.36604" lon="2.56686">
        <ele>529</ele>
        <time>2013-06-26T18:00:17Z</time>
      </trkpt>
      <trkpt lat="44.36603" lon="2.56691">
        <ele>528</ele>
        <time>2013-06-26T18:00:19Z</time>
      </trkpt>
      <trkpt lat="44.366" lon="2.56706">
        <ele>528</ele>
        <time>2013-06-26T18:00:24Z</time>
      </trkpt>
      <trkpt lat="44.36598" lon="2.56724">
        <ele>527</ele>
        <time>2013-06-26T18:00:29Z</time>
      </trkpt>
      <trkpt lat="44.36598" lon="2.56729">
        <ele>527</ele>
        <time>2013-06-26T18:00:31Z</time>
      </trkpt>
      <trkpt lat="44.36594" lon="2.56749">
        <ele>527</ele>
        <time>2013-06-26T18:00:38Z</time>
      </trkpt>
      <trkpt lat="44.36589" lon="2.56761">
        <ele>526</ele>
        <time>2013-06-26T18:00:43Z</time>
      </trkpt>
      <trkpt lat="44.3659" lon="2.5677">
        <ele>527</ele>
        <time>2013-06-26T18:00:47Z</time>
      </trkpt>
      <trkpt lat="44.36594" lon="2.56771">
        <ele>527</ele>
        <time>2013-06-26T18:00:49Z</time>
      </trkpt>
      <trkpt lat="44.36603" lon="2.56776">
        <ele>527</ele>
        <time>2013-06-26T18:00:55Z</time>
      </trkpt>
      <trkpt lat="44.36617" lon="2.56783">
        <ele>527</ele>
        <time>2013-06-26T18:01:00Z</time>
      </trkpt>
      <trkpt lat="44.36627" lon="2.56787">
        <ele>527</ele>
        <time>2013-06-26T18:01:05Z</time>
      </trkpt>
      <trkpt lat="44.36642" lon="2.56795">
        <ele>527</ele>
        <time>2013-06-26T18:01:11Z</time>
      </trkpt>
      <trkpt lat="44.36653" lon="2.56804">
        <ele>527</ele>
        <time>2013-06-26T18:01:16Z</time>
      </trkpt>
      <trkpt lat="44.36665" lon="2.56823">
        <ele>528</ele>
        <time>2013-06-26T18:01:23Z</time>
      </trkpt>
      <trkpt lat="44.36681" lon="2.56849">
        <ele>527</ele>
        <time>2013-06-26T18:01:32Z</time>
      </trkpt>
      <trkpt lat="44.36693" lon="2.56862">
        <ele>527</ele>
        <time>2013-06-26T18:01:38Z</time>
      </trkpt>
      <trkpt lat="44.36713" lon="2.56878">
        <ele>527</ele>
        <time>2013-06-26T18:01:47Z</time>
      </trkpt>
      <trkpt lat="44.36731" lon="2.56883">
        <ele>526</ele>
        <time>2013-06-26T18:01:55Z</time>
      </trkpt>
      <trkpt lat="44.36749" lon="2.56887">
        <ele>526</ele>
        <time>2013-06-26T18:02:02Z</time>
      </trkpt>
      <trkpt lat="44.36765" lon="2.5689">
        <ele>523</ele>
        <time>2013-06-26T18:02:09Z</time>
      </trkpt>
      <trkpt lat="44.36781" lon="2.56892">
        <ele>523</ele>
        <time>2013-06-26T18:02:16Z</time>
      </trkpt>
      <trkpt lat="44.36794" lon="2.56892">
        <ele>523</ele>
        <time>2013-06-26T18:02:22Z</time>
      </trkpt>
      <trkpt lat="44.36796" lon="2.56892">
        <ele>523</ele>
        <time>2013-06-26T18:02:32Z</time>
      </trkpt>
      <trkpt lat="44.36808" lon="2.56887">
        <ele>523</ele>
        <time>2013-06-26T18:02:39Z</time>
      </trkpt>
      <trkpt lat="44.36814" lon="2.56885">
        <ele>523</ele>
        <time>2013-06-26T18:02:44Z</time>
      </trkpt>
      <trkpt lat="44.36828" lon="2.56878">
        <ele>523</ele>
        <time>2013-06-26T18:02:51Z</time>
      </trkpt>
      <trkpt lat="44.36834" lon="2.56875">
        <ele>523</ele>
        <time>2013-06-26T18:02:56Z</time>
      </trkpt>
      <trkpt lat="44.36839" lon="2.56873">
        <ele>523</ele>
        <time>2013-06-26T18:02:59Z</time>
      </trkpt>
      <trkpt lat="44.36844" lon="2.5687">
        <ele>523</ele>
        <time>2013-06-26T18:03:02Z</time>
      </trkpt>
      <trkpt lat="44.36859" lon="2.56867">
        <ele>523</ele>
        <time>2013-06-26T18:03:07Z</time>
      </trkpt>
      <trkpt lat="44.36864" lon="2.56865">
        <ele>524</ele>
        <time>2013-06-26T18:03:09Z</time>
      </trkpt>
      <trkpt lat="44.36878" lon="2.56866">
        <ele>524</ele>
        <time>2013-06-26T18:03:15Z</time>
      </trkpt>
      <trkpt lat="44.36892" lon="2.56873">
        <ele>524</ele>
        <time>2013-06-26T18:03:21Z</time>
      </trkpt>
      <trkpt lat="44.36895" lon="2.56872">
        <ele>524</ele>
        <time>2013-06-26T18:03:22Z</time>
      </trkpt>
      <trkpt lat="44.36906" lon="2.56867">
        <ele>524</ele>
        <time>2013-06-26T18:03:26Z</time>
      </trkpt>
      <trkpt lat="44.36916" lon="2.56861">
        <ele>524</ele>
        <time>2013-06-26T18:03:31Z</time>
      </trkpt>
      <trkpt lat="44.36926" lon="2.56857">
        <ele>525</ele>
        <time>2013-06-26T18:03:35Z</time>
      </trkpt>
      <trkpt lat="44.36934" lon="2.56865">
        <ele>525</ele>
        <time>2013-06-26T18:03:39Z</time>
      </trkpt>
      <trkpt lat="44.36946" lon="2.56891">
        <ele>525</ele>
        <time>2013-06-26T18:03:48Z</time>
      </trkpt>
      <trkpt lat="44.36955" lon="2.56911">
        <ele>525</ele>
        <time>2013-06-26T18:03:55Z</time>
      </trkpt>
      <trkpt lat="44.36958" lon="2.56926">
        <ele>526</ele>
        <time>2013-06-26T18:04:00Z</time>
      </trkpt>
      <trkpt lat="44.36959" lon="2.56932">
        <ele>526</ele>
        <time>2013-06-26T18:04:02Z</time>
      </trkpt>
      <trkpt lat="44.36965" lon="2.56934">
        <ele>526</ele>
        <time>2013-06-26T18:04:06Z</time>
      </trkpt>
      <trkpt lat="44.36971" lon="2.56927">
        <ele>526</ele>
        <time>2013-06-26T18:04:10Z</time>
      </trkpt>
      <trkpt lat="44.36987" lon="2.56914">
        <ele>525</ele>
        <time>2013-06-26T18:04:17Z</time>
      </trkpt>
      <trkpt lat="44.37003" lon="2.56905">
        <ele>525</ele>
        <time>2013-06-26T18:04:23Z</time>
      </trkpt>
      <trkpt lat="44.37018" lon="2.56895">
        <ele>525</ele>
        <time>2013-06-26T18:04:30Z</time>
      </trkpt>
      <trkpt lat="44.37034" lon="2.56885">
        <ele>526</ele>
        <time>2013-06-26T18:04:37Z</time>
      </trkpt>
      <trkpt lat="44.37044" lon="2.56876">
        <ele>526</ele>
        <time>2013-06-26T18:04:42Z</time>
      </trkpt>
      <trkpt lat="44.37059" lon="2.56866">
        <ele>526</ele>
        <time>2013-06-26T18:04:48Z</time>
      </trkpt>
      <trkpt lat="44.3707" lon="2.56856">
        <ele>525</ele>
        <time>2013-06-26T18:04:54Z</time>
      </trkpt>
      <trkpt lat="44.37085" lon="2.56844">
        <ele>526</ele>
        <time>2013-06-26T18:05:01Z</time>
      </trkpt>
      <trkpt lat="44.37096" lon="2.56836">
        <ele>526</ele>
        <time>2013-06-26T18:05:06Z</time>
      </trkpt>
      <trkpt lat="44.37105" lon="2.56827">
        <ele>526</ele>
        <time>2013-06-26T18:05:11Z</time>
      </trkpt>
      <trkpt lat="44.37118" lon="2.56821">
        <ele>527</ele>
        <time>2013-06-26T18:05:15Z</time>
      </trkpt>
      <trkpt lat="44.37122" lon="2.56818">
        <ele>527</ele>
        <time>2013-06-26T18:05:17Z</time>
      </trkpt>
      <trkpt lat="44.37128" lon="2.56809">
        <ele>527</ele>
        <time>2013-06-26T18:05:23Z</time>
      </trkpt>
      <trkpt lat="44.37138" lon="2.56797">
        <ele>527</ele>
        <time>2013-06-26T18:05:30Z</time>
      </trkpt>
      <trkpt lat="44.37139" lon="2.56796">
        <ele>527</ele>
        <time>2013-06-26T18:05:31Z</time>
      </trkpt>
      <trkpt lat="44.37144" lon="2.5679">
        <ele>527</ele>
        <time>2013-06-26T18:05:35Z</time>
      </trkpt>
      <trkpt lat="44.37153" lon="2.5678">
        <ele>527</ele>
        <time>2013-06-26T18:05:41Z</time>
      </trkpt>
      <trkpt lat="44.37173" lon="2.56765">
        <ele>528</ele>
        <time>2013-06-26T18:05:51Z</time>
      </trkpt>
      <trkpt lat="44.37184" lon="2.56755">
        <ele>528</ele>
        <time>2013-06-26T18:05:57Z</time>
      </trkpt>
      <trkpt lat="44.37196" lon="2.56746">
        <ele>529</ele>
        <time>2013-06-26T18:06:03Z</time>
      </trkpt>
      <trkpt lat="44.37203" lon="2.5674">
        <ele>529</ele>
        <time>2013-06-26T18:06:07Z</time>
      </trkpt>
      <trkpt lat="44.37215" lon="2.5673">
        <ele>529</ele>
        <time>2013-06-26T18:06:13Z</time>
      </trkpt>
      <trkpt lat="44.37231" lon="2.5672">
        <ele>529</ele>
        <time>2013-06-26T18:06:19Z</time>
      </trkpt>
      <trkpt lat="44.37243" lon="2.56711">
        <ele>529</ele>
        <time>2013-06-26T18:06:25Z</time>
      </trkpt>
      <trkpt lat="44.37256" lon="2.56701">
        <ele>529</ele>
        <time>2013-06-26T18:06:31Z</time>
      </trkpt>
      <trkpt lat="44.37268" lon="2.56693">
        <ele>529</ele>
        <time>2013-06-26T18:06:37Z</time>
      </trkpt>
      <trkpt lat="44.3728" lon="2.56685">
        <ele>529</ele>
        <time>2013-06-26T18:06:42Z</time>
      </trkpt>
      <trkpt lat="44.37291" lon="2.56676">
        <ele>529</ele>
        <time>2013-06-26T18:06:48Z</time>
      </trkpt>
      <trkpt lat="44.37301" lon="2.56666">
        <ele>527</ele>
        <time>2013-06-26T18:06:54Z</time>
      </trkpt>
      <trkpt lat="44.37312" lon="2.56657">
        <ele>527</ele>
        <time>2013-06-26T18:07:00Z</time>
      </trkpt>
      <trkpt lat="44.37333" lon="2.56646">
        <ele>527</ele>
        <time>2013-06-26T18:07:07Z</time>
      </trkpt>
      <trkpt lat="44.37346" lon="2.56637">
        <ele>529</ele>
        <time>2013-06-26T18:07:13Z</time>
      </trkpt>
      <trkpt lat="44.37355" lon="2.56629">
        <ele>529</ele>
        <time>2013-06-26T18:07:18Z</time>
      </trkpt>
      <trkpt lat="44.37366" lon="2.56622">
        <ele>529</ele>
        <time>2013-06-26T18:07:23Z</time>
      </trkpt>
      <trkpt lat="44.37394" lon="2.56612">
        <ele>529</ele>
        <time>2013-06-26T18:07:30Z</time>
      </trkpt>
      <trkpt lat="44.37406" lon="2.56609">
        <ele>529</ele>
        <time>2013-06-26T18:07:32Z</time>
      </trkpt>
      <trkpt lat="44.37449" lon="2.56595">
        <ele>536</ele>
        <time>2013-06-26T18:07:42Z</time>
      </trkpt>
      <trkpt lat="44.37466" lon="2.56586">
        <ele>537</ele>
        <time>2013-06-26T18:07:48Z</time>
      </trkpt>
      <trkpt lat="44.37487" lon="2.56573">
        <ele>536</ele>
        <time>2013-06-26T18:07:56Z</time>
      </trkpt>
      <trkpt lat="44.37501" lon="2.56564">
        <ele>539</ele>
        <time>2013-06-26T18:08:02Z</time>
      </trkpt>
      <trkpt lat="44.37519" lon="2.56551">
        <ele>539</ele>
        <time>2013-06-26T18:08:10Z</time>
      </trkpt>
      <trkpt lat="44.37537" lon="2.5654">
        <ele>539</ele>
        <time>2013-06-26T18:08:18Z</time>
      </trkpt>
      <trkpt lat="44.3755" lon="2.5653">
        <ele>539</ele>
        <time>2013-06-26T18:08:24Z</time>
      </trkpt>
      <trkpt lat="44.37565" lon="2.56521">
        <ele>538</ele>
        <time>2013-06-26T18:08:31Z</time>
      </trkpt>
      <trkpt lat="44.37579" lon="2.56516">
        <ele>537</ele>
        <time>2013-06-26T18:08:37Z</time>
      </trkpt>
      <trkpt lat="44.37596" lon="2.5651">
        <ele>538</ele>
        <time>2013-06-26T18:08:44Z</time>
      </trkpt>
      <trkpt lat="44.37614" lon="2.56506">
        <ele>539</ele>
        <time>2013-06-26T18:08:51Z</time>
      </trkpt>
      <trkpt lat="44.37633" lon="2.56505">
        <ele>539</ele>
        <time>2013-06-26T18:08:58Z</time>
      </trkpt>
      <trkpt lat="44.3765" lon="2.56506">
        <ele>538</ele>
        <time>2013-06-26T18:09:04Z</time>
      </trkpt>
      <trkpt lat="44.37664" lon="2.56508">
        <ele>536</ele>
        <time>2013-06-26T18:09:10Z</time>
      </trkpt>
      <trkpt lat="44.37681" lon="2.56512">
        <ele>538</ele>
        <time>2013-06-26T18:09:16Z</time>
      </trkpt>
      <trkpt lat="44.37686" lon="2.56513">
        <ele>538</ele>
        <time>2013-06-26T18:09:18Z</time>
      </trkpt>
      <trkpt lat="44.37699" lon="2.56517">
        <ele>539</ele>
        <time>2013-06-26T18:09:23Z</time>
      </trkpt>
      <trkpt lat="44.37718" lon="2.56524">
        <ele>540</ele>
        <time>2013-06-26T18:09:31Z</time>
      </trkpt>
      <trkpt lat="44.37727" lon="2.56528">
        <ele>540</ele>
        <time>2013-06-26T18:09:36Z</time>
      </trkpt>
      <trkpt lat="44.37743" lon="2.56534">
        <ele>540</ele>
        <time>2013-06-26T18:09:43Z</time>
      </trkpt>
      <trkpt lat="44.37763" lon="2.56538">
        <ele>540</ele>
        <time>2013-06-26T18:09:51Z</time>
      </trkpt>
      <trkpt lat="44.37775" lon="2.5654">
        <ele>540</ele>
        <time>2013-06-26T18:09:56Z</time>
      </trkpt>
      <trkpt lat="44.37786" lon="2.56547">
        <ele>541</ele>
        <time>2013-06-26T18:10:01Z</time>
      </trkpt>
      <trkpt lat="44.37802" lon="2.56554">
        <ele>541</ele>
        <time>2013-06-26T18:10:08Z</time>
      </trkpt>
      <trkpt lat="44.37821" lon="2.56559">
        <ele>541</ele>
        <time>2013-06-26T18:10:16Z</time>
      </trkpt>
      <trkpt lat="44.37832" lon="2.56561">
        <ele>542</ele>
        <time>2013-06-26T18:10:21Z</time>
      </trkpt>
      <trkpt lat="44.37846" lon="2.56566">
        <ele>543</ele>
        <time>2013-06-26T18:10:26Z</time>
      </trkpt>
      <trkpt lat="44.37859" lon="2.56569">
        <ele>543</ele>
        <time>2013-06-26T18:10:31Z</time>
      </trkpt>
      <trkpt lat="44.37876" lon="2.56574">
        <ele>542</ele>
        <time>2013-06-26T18:10:37Z</time>
      </trkpt>
      <trkpt lat="44.37893" lon="2.5658">
        <ele>542</ele>
        <time>2013-06-26T18:10:44Z</time>
      </trkpt>
      <trkpt lat="44.3791" lon="2.56584">
        <ele>543</ele>
        <time>2013-06-26T18:10:51Z</time>
      </trkpt>
      <trkpt lat="44.37924" lon="2.56585">
        <ele>542</ele>
        <time>2013-06-26T18:10:58Z</time>
      </trkpt>
      <trkpt lat="44.3794" lon="2.56584">
        <ele>543</ele>
        <time>2013-06-26T18:11:04Z</time>
      </trkpt>
      <trkpt lat="44.37955" lon="2.56582">
        <ele>546</ele>
        <time>2013-06-26T18:11:10Z</time>
      </trkpt>
      <trkpt lat="44.3797" lon="2.56581">
        <ele>546</ele>
        <time>2013-06-26T18:11:16Z</time>
      </trkpt>
      <trkpt lat="44.37979" lon="2.56578">
        <ele>546</ele>
        <time>2013-06-26T18:11:20Z</time>
      </trkpt>
      <trkpt lat="44.37993" lon="2.56576">
        <ele>545</ele>
        <time>2013-06-26T18:11:26Z</time>
      </trkpt>
      <trkpt lat="44.38009" lon="2.56575">
        <ele>548</ele>
        <time>2013-06-26T18:11:32Z</time>
      </trkpt>
      <trkpt lat="44.3802" lon="2.56577">
        <ele>550</ele>
        <time>2013-06-26T18:11:36Z</time>
      </trkpt>
      <trkpt lat="44.38033" lon="2.56582">
        <ele>552</ele>
        <time>2013-06-26T18:11:41Z</time>
      </trkpt>
      <trkpt lat="44.38045" lon="2.56588">
        <ele>546</ele>
        <time>2013-06-26T18:11:46Z</time>
      </trkpt>
      <trkpt lat="44.38058" lon="2.56596">
        <ele>546</ele>
        <time>2013-06-26T18:11:52Z</time>
      </trkpt>
      <trkpt lat="44.38072" lon="2.56606">
        <ele>547</ele>
        <time>2013-06-26T18:11:58Z</time>
      </trkpt>
      <trkpt lat="44.38087" lon="2.56618">
        <ele>549</ele>
        <time>2013-06-26T18:12:05Z</time>
      </trkpt>
      <trkpt lat="44.38098" lon="2.56626">
        <ele>549</ele>
        <time>2013-06-26T18:12:10Z</time>
      </trkpt>
      <trkpt lat="44.38111" lon="2.56637">
        <ele>549</ele>
        <time>2013-06-26T18:12:16Z</time>
      </trkpt>
      <trkpt lat="44.38127" lon="2.56649">
        <ele>549</ele>
        <time>2013-06-26T18:12:23Z</time>
      </trkpt>
      <trkpt lat="44.38137" lon="2.56657">
        <ele>549</ele>
        <time>2013-06-26T18:12:28Z</time>
      </trkpt>
      <trkpt lat="44.38151" lon="2.56666">
        <ele>547</ele>
        <time>2013-06-26T18:12:34Z</time>
      </trkpt>
      <trkpt lat="44.38164" lon="2.56672">
        <ele>546</ele>
        <time>2013-06-26T18:12:39Z</time>
      </trkpt>
      <trkpt lat="44.38175" lon="2.56675">
        <ele>547</ele>
        <time>2013-06-26T18:12:43Z</time>
      </trkpt>
      <trkpt lat="44.3819" lon="2.56678">
        <ele>549</ele>
        <time>2013-06-26T18:12:49Z</time>
      </trkpt>
      <trkpt lat="44.38201" lon="2.56681">
        <ele>549</ele>
        <time>2013-06-26T18:12:54Z</time>
      </trkpt>
      <trkpt lat="44.38219" lon="2.56683">
        <ele>550</ele>
        <time>2013-06-26T18:13:01Z</time>
      </trkpt>
      <trkpt lat="44.38237" lon="2.56686">
        <ele>550</ele>
        <time>2013-06-26T18:13:08Z</time>
      </trkpt>
      <trkpt lat="44.38252" lon="2.56687">
        <ele>550</ele>
        <time>2013-06-26T18:13:14Z</time>
      </trkpt>
      <trkpt lat="44.38265" lon="2.56688">
        <ele>551</ele>
        <time>2013-06-26T18:13:19Z</time>
      </trkpt>
      <trkpt lat="44.38275" lon="2.56689">
        <ele>551</ele>
        <time>2013-06-26T18:13:23Z</time>
      </trkpt>
      <trkpt lat="44.38292" lon="2.56689">
        <ele>551</ele>
        <time>2013-06-26T18:13:30Z</time>
      </trkpt>
      <trkpt lat="44.38307" lon="2.56689">
        <ele>551</ele>
        <time>2013-06-26T18:13:36Z</time>
      </trkpt>
      <trkpt lat="44.3832" lon="2.5669">
        <ele>551</ele>
        <time>2013-06-26T18:13:41Z</time>
      </trkpt>
      <trkpt lat="44.38341" lon="2.56692">
        <ele>550</ele>
        <time>2013-06-26T18:13:49Z</time>
      </trkpt>
      <trkpt lat="44.38355" lon="2.56693">
        <ele>550</ele>
        <time>2013-06-26T18:13:55Z</time>
      </trkpt>
      <trkpt lat="44.38373" lon="2.56694">
        <ele>550</ele>
        <time>2013-06-26T18:14:02Z</time>
      </trkpt>
      <trkpt lat="44.38388" lon="2.56696">
        <ele>550</ele>
        <time>2013-06-26T18:14:07Z</time>
      </trkpt>
      <trkpt lat="44.38404" lon="2.56697">
        <ele>550</ele>
        <time>2013-06-26T18:14:13Z</time>
      </trkpt>
      <trkpt lat="44.38421" lon="2.56698">
        <ele>549</ele>
        <time>2013-06-26T18:14:19Z</time>
      </trkpt>
      <trkpt lat="44.38437" lon="2.56699">
        <ele>549</ele>
        <time>2013-06-26T18:14:25Z</time>
      </trkpt>
      <trkpt lat="44.3845" lon="2.567">
        <ele>549</ele>
        <time>2013-06-26T18:14:30Z</time>
      </trkpt>
      <trkpt lat="44.3846" lon="2.56701">
        <ele>550</ele>
        <time>2013-06-26T18:14:34Z</time>
      </trkpt>
      <trkpt lat="44.38473" lon="2.567">
        <ele>550</ele>
        <time>2013-06-26T18:14:40Z</time>
      </trkpt>
      <trkpt lat="44.38475" lon="2.567">
        <ele>550</ele>
        <time>2013-06-26T18:14:41Z</time>
      </trkpt>
      <trkpt lat="44.38479" lon="2.56698">
        <ele>550</ele>
        <time>2013-06-26T18:14:45Z</time>
      </trkpt>
      <trkpt lat="44.38486" lon="2.56697">
        <ele>550</ele>
        <time>2013-06-26T18:14:49Z</time>
      </trkpt>
      <trkpt lat="44.38498" lon="2.56695">
        <ele>550</ele>
        <time>2013-06-26T18:14:54Z</time>
      </trkpt>
      <trkpt lat="44.38519" lon="2.56691">
        <ele>552</ele>
        <time>2013-06-26T18:15:01Z</time>
      </trkpt>
      <trkpt lat="44.38535" lon="2.56687">
        <ele>552</ele>
        <time>2013-06-26T18:15:06Z</time>
      </trkpt>
      <trkpt lat="44.38549" lon="2.56684">
        <ele>552</ele>
        <time>2013-06-26T18:15:11Z</time>
      </trkpt>
      <trkpt lat="44.38563" lon="2.56681">
        <ele>552</ele>
        <time>2013-06-26T18:15:16Z</time>
      </trkpt>
      <trkpt lat="44.38566" lon="2.56681">
        <ele>552</ele>
        <time>2013-06-26T18:15:17Z</time>
      </trkpt>
      <trkpt lat="44.38566" lon="2.56681">
        <ele>552</ele>
        <time>2013-06-26T18:15:17Z</time>
      </trkpt>
      <trkpt lat="44.38584" lon="2.56677">
        <ele>553</ele>
        <time>2013-06-26T18:15:24Z</time>
      </trkpt>
      <trkpt lat="44.38596" lon="2.56673">
        <ele>553</ele>
        <time>2013-06-26T18:15:29Z</time>
      </trkpt>
      <trkpt lat="44.38608" lon="2.56668">
        <ele>554</ele>
        <time>2013-06-26T18:15:34Z</time>
      </trkpt>
      <trkpt lat="44.38618" lon="2.56664">
        <ele>554</ele>
        <time>2013-06-26T18:15:38Z</time>
      </trkpt>
      <trkpt lat="44.38633" lon="2.56658">
        <ele>555</ele>
        <time>2013-06-26T18:15:44Z</time>
      </trkpt>
      <trkpt lat="44.38648" lon="2.56653">
        <ele>554</ele>
        <time>2013-06-26T18:15:50Z</time>
      </trkpt>
      <trkpt lat="44.38663" lon="2.56652">
        <ele>554</ele>
        <time>2013-06-26T18:15:56Z</time>
      </trkpt>
      <trkpt lat="44.38679" lon="2.56651">
        <ele>554</ele>
        <time>2013-06-26T18:16:02Z</time>
      </trkpt>
      <trkpt lat="44.38698" lon="2.56646">
        <ele>554</ele>
        <time>2013-06-26T18:16:09Z</time>
      </trkpt>
      <trkpt lat="44.3871" lon="2.56643">
        <ele>555</ele>
        <time>2013-06-26T18:16:14Z</time>
      </trkpt>
      <trkpt lat="44.38721" lon="2.56642">
        <ele>555</ele>
        <time>2013-06-26T18:16:18Z</time>
      </trkpt>
      <trkpt lat="44.38739" lon="2.56636">
        <ele>555</ele>
        <time>2013-06-26T18:16:25Z</time>
      </trkpt>
      <trkpt lat="44.38759" lon="2.56631">
        <ele>555</ele>
        <time>2013-06-26T18:16:33Z</time>
      </trkpt>
      <trkpt lat="44.38771" lon="2.56628">
        <ele>555</ele>
        <time>2013-06-26T18:16:38Z</time>
      </trkpt>
      <trkpt lat="44.38785" lon="2.56625">
        <ele>555</ele>
        <time>2013-06-26T18:16:44Z</time>
      </trkpt>
      <trkpt lat="44.38806" lon="2.56623">
        <ele>555</ele>
        <time>2013-06-26T18:16:52Z</time>
      </trkpt>
      <trkpt lat="44.38825" lon="2.56624">
        <ele>554</ele>
        <time>2013-06-26T18:16:59Z</time>
      </trkpt>
      <trkpt lat="44.38844" lon="2.56625">
        <ele>552</ele>
        <time>2013-06-26T18:17:06Z</time>
      </trkpt>
      <trkpt lat="44.38857" lon="2.56627">
        <ele>552</ele>
        <time>2013-06-26T18:17:11Z</time>
      </trkpt>
      <trkpt lat="44.38872" lon="2.56626">
        <ele>552</ele>
        <time>2013-06-26T18:17:17Z</time>
      </trkpt>
      <trkpt lat="44.38891" lon="2.56627">
        <ele>551</ele>
        <time>2013-06-26T18:17:23Z</time>
      </trkpt>
      <trkpt lat="44.38904" lon="2.5663">
        <ele>551</ele>
        <time>2013-06-26T18:17:28Z</time>
      </trkpt>
      <trkpt lat="44.38916" lon="2.5663">
        <ele>551</ele>
        <time>2013-06-26T18:17:33Z</time>
      </trkpt>
      <trkpt lat="44.38928" lon="2.56631">
        <ele>550</ele>
        <time>2013-06-26T18:17:38Z</time>
      </trkpt>
      <trkpt lat="44.38942" lon="2.56633">
        <ele>550</ele>
        <time>2013-06-26T18:17:44Z</time>
      </trkpt>
      <trkpt lat="44.38954" lon="2.56634">
        <ele>550</ele>
        <time>2013-06-26T18:17:49Z</time>
      </trkpt>
      <trkpt lat="44.38973" lon="2.56635">
        <ele>550</ele>
        <time>2013-06-26T18:17:56Z</time>
      </trkpt>
      <trkpt lat="44.3899" lon="2.56635">
        <ele>550</ele>
        <time>2013-06-26T18:18:03Z</time>
      </trkpt>
      <trkpt lat="44.39007" lon="2.56636">
        <ele>552</ele>
        <time>2013-06-26T18:18:10Z</time>
      </trkpt>
      <trkpt lat="44.39023" lon="2.56637">
        <ele>552</ele>
        <time>2013-06-26T18:18:17Z</time>
      </trkpt>
      <trkpt lat="44.39037" lon="2.56637">
        <ele>552</ele>
        <time>2013-06-26T18:18:23Z</time>
      </trkpt>
      <trkpt lat="44.3905" lon="2.56635">
        <ele>553</ele>
        <time>2013-06-26T18:18:29Z</time>
      </trkpt>
      <trkpt lat="44.39063" lon="2.56635">
        <ele>553</ele>
        <time>2013-06-26T18:18:34Z</time>
      </trkpt>
      <trkpt lat="44.39084" lon="2.56631">
        <ele>556</ele>
        <time>2013-06-26T18:18:43Z</time>
      </trkpt>
      <trkpt lat="44.39098" lon="2.56628">
        <ele>557</ele>
        <time>2013-06-26T18:18:49Z</time>
      </trkpt>
      <trkpt lat="44.3911" lon="2.56622">
        <ele>557</ele>
        <time>2013-06-26T18:18:54Z</time>
      </trkpt>
      <trkpt lat="44.39122" lon="2.56614">
        <ele>557</ele>
        <time>2013-06-26T18:19:00Z</time>
      </trkpt>
      <trkpt lat="44.39134" lon="2.56607">
        <ele>558</ele>
        <time>2013-06-26T18:19:06Z</time>
      </trkpt>
      <trkpt lat="44.39149" lon="2.566">
        <ele>558</ele>
        <time>2013-06-26T18:19:13Z</time>
      </trkpt>
      <trkpt lat="44.39167" lon="2.56592">
        <ele>561</ele>
        <time>2013-06-26T18:19:21Z</time>
      </trkpt>
      <trkpt lat="44.39176" lon="2.56598">
        <ele>562</ele>
        <time>2013-06-26T18:19:26Z</time>
      </trkpt>
      <trkpt lat="44.39183" lon="2.56608">
        <ele>562</ele>
        <time>2013-06-26T18:19:30Z</time>
      </trkpt>
      <trkpt lat="44.39186" lon="2.56608">
        <ele>562</ele>
        <time>2013-06-26T18:19:31Z</time>
      </trkpt>
      <trkpt lat="44.3919" lon="2.56608">
        <ele>563</ele>
        <time>2013-06-26T18:19:33Z</time>
      </trkpt>
      <trkpt lat="44.39205" lon="2.56598">
        <ele>563</ele>
        <time>2013-06-26T18:19:41Z</time>
      </trkpt>
      <trkpt lat="44.39211" lon="2.56593">
        <ele>563</ele>
        <time>2013-06-26T18:19:45Z</time>
      </trkpt>
      <trkpt lat="44.39227" lon="2.56584">
        <ele>565</ele>
        <time>2013-06-26T18:19:52Z</time>
      </trkpt>
      <trkpt lat="44.3924" lon="2.56576">
        <ele>565</ele>
        <time>2013-06-26T18:19:58Z</time>
      </trkpt>
      <trkpt lat="44.3925" lon="2.56569">
        <ele>568</ele>
        <time>2013-06-26T18:20:02Z</time>
      </trkpt>
      <trkpt lat="44.39259" lon="2.56555">
        <ele>568</ele>
        <time>2013-06-26T18:20:08Z</time>
      </trkpt>
      <trkpt lat="44.39261" lon="2.56553">
        <ele>568</ele>
        <time>2013-06-26T18:20:09Z</time>
      </trkpt>
      <trkpt lat="44.39274" lon="2.56539">
        <ele>568</ele>
        <time>2013-06-26T18:20:15Z</time>
      </trkpt>
      <trkpt lat="44.39275" lon="2.56537">
        <ele>568</ele>
        <time>2013-06-26T18:20:16Z</time>
      </trkpt>
      <trkpt lat="44.39283" lon="2.5652">
        <ele>568</ele>
        <time>2013-06-26T18:20:23Z</time>
      </trkpt>
      <trkpt lat="44.39292" lon="2.56507">
        <ele>568</ele>
        <time>2013-06-26T18:20:29Z</time>
      </trkpt>
      <trkpt lat="44.39298" lon="2.56499">
        <ele>568</ele>
        <time>2013-06-26T18:20:33Z</time>
      </trkpt>
      <trkpt lat="44.39309" lon="2.56484">
        <ele>569</ele>
        <time>2013-06-26T18:20:40Z</time>
      </trkpt>
      <trkpt lat="44.39318" lon="2.56474">
        <ele>569</ele>
        <time>2013-06-26T18:20:45Z</time>
      </trkpt>
      <trkpt lat="44.3933" lon="2.56464">
        <ele>569</ele>
        <time>2013-06-26T18:20:51Z</time>
      </trkpt>
      <trkpt lat="44.39339" lon="2.56454">
        <ele>571</ele>
        <time>2013-06-26T18:20:56Z</time>
      </trkpt>
      <trkpt lat="44.39348" lon="2.56442">
        <ele>571</ele>
        <time>2013-06-26T18:21:03Z</time>
      </trkpt>
      <trkpt lat="44.39354" lon="2.56429">
        <ele>571</ele>
        <time>2013-06-26T18:21:09Z</time>
      </trkpt>
      <trkpt lat="44.39366" lon="2.56415">
        <ele>571</ele>
        <time>2013-06-26T18:21:15Z</time>
      </trkpt>
      <trkpt lat="44.39378" lon="2.56403">
        <ele>571</ele>
        <time>2013-06-26T18:21:21Z</time>
      </trkpt>
      <trkpt lat="44.3938" lon="2.56401">
        <ele>571</ele>
        <time>2013-06-26T18:21:22Z</time>
      </trkpt>
      <trkpt lat="44.39385" lon="2.56391">
        <ele>571</ele>
        <time>2013-06-26T18:21:27Z</time>
      </trkpt>
      <trkpt lat="44.39389" lon="2.56387">
        <ele>571</ele>
        <time>2013-06-26T18:21:29Z</time>
      </trkpt>
      <trkpt lat="44.3941" lon="2.56375">
        <ele>571</ele>
        <time>2013-06-26T18:21:35Z</time>
      </trkpt>
      <trkpt lat="44.39416" lon="2.56366">
        <ele>571</ele>
        <time>2013-06-26T18:21:39Z</time>
      </trkpt>
      <trkpt lat="44.39432" lon="2.5635">
        <ele>569</ele>
        <time>2013-06-26T18:21:47Z</time>
      </trkpt>
      <trkpt lat="44.39445" lon="2.56339">
        <ele>569</ele>
        <time>2013-06-26T18:21:53Z</time>
      </trkpt>
      <trkpt lat="44.39455" lon="2.56333">
        <ele>569</ele>
        <time>2013-06-26T18:21:57Z</time>
      </trkpt>
      <trkpt lat="44.39468" lon="2.56327">
        <ele>568</ele>
        <time>2013-06-26T18:22:03Z</time>
      </trkpt>
      <trkpt lat="44.39478" lon="2.5632">
        <ele>568</ele>
        <time>2013-06-26T18:22:08Z</time>
      </trkpt>
      <trkpt lat="44.39483" lon="2.56316">
        <ele>568</ele>
        <time>2013-06-26T18:22:11Z</time>
      </trkpt>
      <trkpt lat="44.3949" lon="2.5631">
        <ele>568</ele>
        <time>2013-06-26T18:22:16Z</time>
      </trkpt>
      <trkpt lat="44.39498" lon="2.56305">
        <ele>568</ele>
        <time>2013-06-26T18:22:21Z</time>
      </trkpt>
      <trkpt lat="44.39508" lon="2.56299">
        <ele>566</ele>
        <time>2013-06-26T18:22:27Z</time>
      </trkpt>
      <trkpt lat="44.39524" lon="2.56297">
        <ele>566</ele>
        <time>2013-06-26T18:22:31Z</time>
      </trkpt>
      <trkpt lat="44.39545" lon="2.56295">
        <ele>566</ele>
        <time>2013-06-26T18:22:38Z</time>
      </trkpt>
      <trkpt lat="44.39564" lon="2.56293">
        <ele>566</ele>
        <time>2013-06-26T18:22:45Z</time>
      </trkpt>
      <trkpt lat="44.39583" lon="2.56294">
        <ele>566</ele>
        <time>2013-06-26T18:22:52Z</time>
      </trkpt>
      <trkpt lat="44.396" lon="2.56292">
        <ele>566</ele>
        <time>2013-06-26T18:22:59Z</time>
      </trkpt>
      <trkpt lat="44.39614" lon="2.56291">
        <ele>566</ele>
        <time>2013-06-26T18:23:05Z</time>
      </trkpt>
      <trkpt lat="44.39629" lon="2.56289">
        <ele>566</ele>
        <time>2013-06-26T18:23:11Z</time>
      </trkpt>
      <trkpt lat="44.39641" lon="2.56289">
        <ele>566</ele>
        <time>2013-06-26T18:23:16Z</time>
      </trkpt>
      <trkpt lat="44.39655" lon="2.56289">
        <ele>566</ele>
        <time>2013-06-26T18:23:21Z</time>
      </trkpt>
      <trkpt lat="44.39672" lon="2.56287">
        <ele>567</ele>
        <time>2013-06-26T18:23:28Z</time>
      </trkpt>
      <trkpt lat="44.39684" lon="2.56285">
        <ele>567</ele>
        <time>2013-06-26T18:23:33Z</time>
      </trkpt>
      <trkpt lat="44.39695" lon="2.56283">
        <ele>567</ele>
        <time>2013-06-26T18:23:38Z</time>
      </trkpt>
      <trkpt lat="44.39705" lon="2.56279">
        <ele>567</ele>
        <time>2013-06-26T18:23:42Z</time>
      </trkpt>
      <trkpt lat="44.3972" lon="2.56273">
        <ele>567</ele>
        <time>2013-06-26T18:23:49Z</time>
      </trkpt>
      <trkpt lat="44.39731" lon="2.56267">
        <ele>567</ele>
        <time>2013-06-26T18:23:55Z</time>
      </trkpt>
      <trkpt lat="44.39747" lon="2.56259">
        <ele>568</ele>
        <time>2013-06-26T18:24:02Z</time>
      </trkpt>
      <trkpt lat="44.3976" lon="2.56249">
        <ele>568</ele>
        <time>2013-06-26T18:24:09Z</time>
      </trkpt>
      <trkpt lat="44.39767" lon="2.56242">
        <ele>568</ele>
        <time>2013-06-26T18:24:14Z</time>
      </trkpt>
      <trkpt lat="44.3978" lon="2.56226">
        <ele>569</ele>
        <time>2013-06-26T18:24:22Z</time>
      </trkpt>
      <trkpt lat="44.39793" lon="2.56212">
        <ele>569</ele>
        <time>2013-06-26T18:24:28Z</time>
      </trkpt>
      <trkpt lat="44.3981" lon="2.56194">
        <ele>569</ele>
        <time>2013-06-26T18:24:36Z</time>
      </trkpt>
      <trkpt lat="44.39821" lon="2.56178">
        <ele>569</ele>
        <time>2013-06-26T18:24:43Z</time>
      </trkpt>
      <trkpt lat="44.3983" lon="2.56166">
        <ele>570</ele>
        <time>2013-06-26T18:24:48Z</time>
      </trkpt>
      <trkpt lat="44.39843" lon="2.5615">
        <ele>570</ele>
        <time>2013-06-26T18:24:55Z</time>
      </trkpt>
      <trkpt lat="44.39853" lon="2.56137">
        <ele>571</ele>
        <time>2013-06-26T18:25:01Z</time>
      </trkpt>
      <trkpt lat="44.39857" lon="2.56133">
        <ele>571</ele>
        <time>2013-06-26T18:25:03Z</time>
      </trkpt>
      <trkpt lat="44.39865" lon="2.5612">
        <ele>571</ele>
        <time>2013-06-26T18:25:08Z</time>
      </trkpt>
      <trkpt lat="44.39882" lon="2.56102">
        <ele>571</ele>
        <time>2013-06-26T18:25:16Z</time>
      </trkpt>
      <trkpt lat="44.39893" lon="2.56091">
        <ele>571</ele>
        <time>2013-06-26T18:25:22Z</time>
      </trkpt>
      <trkpt lat="44.39906" lon="2.56082">
        <ele>572</ele>
        <time>2013-06-26T18:25:28Z</time>
      </trkpt>
      <trkpt lat="44.39919" lon="2.56074">
        <ele>573</ele>
        <time>2013-06-26T18:25:34Z</time>
      </trkpt>
      <trkpt lat="44.39932" lon="2.56066">
        <ele>573</ele>
        <time>2013-06-26T18:25:40Z</time>
      </trkpt>
      <trkpt lat="44.39943" lon="2.56061">
        <ele>574</ele>
        <time>2013-06-26T18:25:45Z</time>
      </trkpt>
      <trkpt lat="44.39961" lon="2.56055">
        <ele>574</ele>
        <time>2013-06-26T18:25:53Z</time>
      </trkpt>
      <trkpt lat="44.39972" lon="2.56053">
        <ele>574</ele>
        <time>2013-06-26T18:25:58Z</time>
      </trkpt>
      <trkpt lat="44.39983" lon="2.56052">
        <ele>574</ele>
        <time>2013-06-26T18:26:03Z</time>
      </trkpt>
      <trkpt lat="44.39992" lon="2.56052">
        <ele>574</ele>
        <time>2013-06-26T18:26:07Z</time>
      </trkpt>
      <trkpt lat="44.40006" lon="2.56051">
        <ele>577</ele>
        <time>2013-06-26T18:26:13Z</time>
      </trkpt>
      <trkpt lat="44.40022" lon="2.5605">
        <ele>577</ele>
        <time>2013-06-26T18:26:20Z</time>
      </trkpt>
      <trkpt lat="44.40036" lon="2.56048">
        <ele>578</ele>
        <time>2013-06-26T18:26:26Z</time>
      </trkpt>
      <trkpt lat="44.4005" lon="2.56046">
        <ele>578</ele>
        <time>2013-06-26T18:26:33Z</time>
      </trkpt>
      <trkpt lat="44.40063" lon="2.56045">
        <ele>579</ele>
        <time>2013-06-26T18:26:39Z</time>
      </trkpt>
      <trkpt lat="44.40077" lon="2.56044">
        <ele>579</ele>
        <time>2013-06-26T18:26:45Z</time>
      </trkpt>
      <trkpt lat="44.40089" lon="2.5605">
        <ele>583</ele>
        <time>2013-06-26T18:26:50Z</time>
      </trkpt>
      <trkpt lat="44.401" lon="2.56059">
        <ele>583</ele>
        <time>2013-06-26T18:26:56Z</time>
      </trkpt>
      <trkpt lat="44.40098" lon="2.56055">
        <ele>583</ele>
        <time>2013-06-26T18:27:01Z</time>
      </trkpt>
      <trkpt lat="44.40082" lon="2.56047">
        <ele>579</ele>
        <time>2013-06-26T18:27:08Z</time>
      </trkpt>
      <trkpt lat="44.40062" lon="2.56046">
        <ele>579</ele>
        <time>2013-06-26T18:27:16Z</time>
      </trkpt>
      <trkpt lat="44.40041" lon="2.56046">
        <ele>578</ele>
        <time>2013-06-26T18:27:24Z</time>
      </trkpt>
      <trkpt lat="44.40021" lon="2.56046">
        <ele>577</ele>
        <time>2013-06-26T18:27:31Z</time>
      </trkpt>
      <trkpt lat="44.40013" lon="2.56047">
        <ele>577</ele>
        <time>2013-06-26T18:27:36Z</time>
      </trkpt>
      <trkpt lat="44.40007" lon="2.56048">
        <ele>577</ele>
        <time>2013-06-26T18:27:40Z</time>
      </trkpt>
      <trkpt lat="44.39999" lon="2.56049">
        <ele>574</ele>
        <time>2013-06-26T18:27:45Z</time>
      </trkpt>
      <trkpt lat="44.39998" lon="2.56049">
        <ele>574</ele>
        <time>2013-06-26T18:27:50Z</time>
      </trkpt>
      <trkpt lat="44.39987" lon="2.5605">
        <ele>574</ele>
        <time>2013-06-26T18:27:55Z</time>
      </trkpt>
      <trkpt lat="44.39987" lon="2.5605">
        <ele>574</ele>
        <time>2013-06-26T18:27:55Z</time>
      </trkpt>
      <trkpt lat="44.39972" lon="2.56051">
        <ele>574</ele>
        <time>2013-06-26T18:28:01Z</time>
      </trkpt>
      <trkpt lat="44.39951" lon="2.56055">
        <ele>574</ele>
        <time>2013-06-26T18:28:09Z</time>
      </trkpt>
      <trkpt lat="44.39935" lon="2.5606">
        <ele>573</ele>
        <time>2013-06-26T18:28:15Z</time>
      </trkpt>
      <trkpt lat="44.39917" lon="2.56069">
        <ele>573</ele>
        <time>2013-06-26T18:28:22Z</time>
      </trkpt>
      <trkpt lat="44.39895" lon="2.56084">
        <ele>571</ele>
        <time>2013-06-26T18:28:31Z</time>
      </trkpt>
      <trkpt lat="44.39886" lon="2.56092">
        <ele>571</ele>
        <time>2013-06-26T18:28:35Z</time>
      </trkpt>
      <trkpt lat="44.39875" lon="2.56104">
        <ele>571</ele>
        <time>2013-06-26T18:28:40Z</time>
      </trkpt>
      <trkpt lat="44.39864" lon="2.56119">
        <ele>571</ele>
        <time>2013-06-26T18:28:46Z</time>
      </trkpt>
      <trkpt lat="44.39855" lon="2.56128">
        <ele>571</ele>
        <time>2013-06-26T18:28:50Z</time>
      </trkpt>
      <trkpt lat="44.39843" lon="2.56143">
        <ele>570</ele>
        <time>2013-06-26T18:28:56Z</time>
      </trkpt>
      <trkpt lat="44.39831" lon="2.56161">
        <ele>570</ele>
        <time>2013-06-26T18:29:03Z</time>
      </trkpt>
      <trkpt lat="44.39813" lon="2.56184">
        <ele>569</ele>
        <time>2013-06-26T18:29:12Z</time>
      </trkpt>
      <trkpt lat="44.39802" lon="2.56199">
        <ele>569</ele>
        <time>2013-06-26T18:29:18Z</time>
      </trkpt>
      <trkpt lat="44.39786" lon="2.56217">
        <ele>569</ele>
        <time>2013-06-26T18:29:26Z</time>
      </trkpt>
      <trkpt lat="44.39773" lon="2.56229">
        <ele>569</ele>
        <time>2013-06-26T18:29:32Z</time>
      </trkpt>
      <trkpt lat="44.39758" lon="2.56243">
        <ele>568</ele>
        <time>2013-06-26T18:29:39Z</time>
      </trkpt>
      <trkpt lat="44.39746" lon="2.56253">
        <ele>568</ele>
        <time>2013-06-26T18:29:45Z</time>
      </trkpt>
      <trkpt lat="44.39729" lon="2.56261">
        <ele>567</ele>
        <time>2013-06-26T18:29:52Z</time>
      </trkpt>
      <trkpt lat="44.39718" lon="2.56268">
        <ele>567</ele>
        <time>2013-06-26T18:29:57Z</time>
      </trkpt>
      <trkpt lat="44.39707" lon="2.56271">
        <ele>567</ele>
        <time>2013-06-26T18:30:01Z</time>
      </trkpt>
      <trkpt lat="44.39695" lon="2.56275">
        <ele>567</ele>
        <time>2013-06-26T18:30:06Z</time>
      </trkpt>
      <trkpt lat="44.39682" lon="2.56279">
        <ele>567</ele>
        <time>2013-06-26T18:30:11Z</time>
      </trkpt>
      <trkpt lat="44.3967" lon="2.56281">
        <ele>567</ele>
        <time>2013-06-26T18:30:16Z</time>
      </trkpt>
      <trkpt lat="44.39655" lon="2.56282">
        <ele>566</ele>
        <time>2013-06-26T18:30:22Z</time>
      </trkpt>
      <trkpt lat="44.39643" lon="2.56282">
        <ele>566</ele>
        <time>2013-06-26T18:30:27Z</time>
      </trkpt>
      <trkpt lat="44.39623" lon="2.56284">
        <ele>566</ele>
        <time>2013-06-26T18:30:35Z</time>
      </trkpt>
      <trkpt lat="44.3961" lon="2.56286">
        <ele>566</ele>
        <time>2013-06-26T18:30:40Z</time>
      </trkpt>
      <trkpt lat="44.39589" lon="2.56287">
        <ele>566</ele>
        <time>2013-06-26T18:30:48Z</time>
      </trkpt>
      <trkpt lat="44.3957" lon="2.56288">
        <ele>566</ele>
        <time>2013-06-26T18:30:56Z</time>
      </trkpt>
      <trkpt lat="44.39555" lon="2.56288">
        <ele>566</ele>
        <time>2013-06-26T18:31:02Z</time>
      </trkpt>
      <trkpt lat="44.39542" lon="2.56289">
        <ele>566</ele>
        <time>2013-06-26T18:31:07Z</time>
      </trkpt>
      <trkpt lat="44.39531" lon="2.56292">
        <ele>566</ele>
        <time>2013-06-26T18:31:12Z</time>
      </trkpt>
      <trkpt lat="44.3952" lon="2.56292">
        <ele>566</ele>
        <time>2013-06-26T18:31:16Z</time>
      </trkpt>
      <trkpt lat="44.39505" lon="2.56299">
        <ele>566</ele>
        <time>2013-06-26T18:31:23Z</time>
      </trkpt>
      <trkpt lat="44.39489" lon="2.56305">
        <ele>568</ele>
        <time>2013-06-26T18:31:30Z</time>
      </trkpt>
      <trkpt lat="44.39479" lon="2.56313">
        <ele>568</ele>
        <time>2013-06-26T18:31:35Z</time>
      </trkpt>
      <trkpt lat="44.3947" lon="2.56321">
        <ele>568</ele>
        <time>2013-06-26T18:31:40Z</time>
      </trkpt>
      <trkpt lat="44.39459" lon="2.56332">
        <ele>568</ele>
        <time>2013-06-26T18:31:46Z</time>
      </trkpt>
      <trkpt lat="44.39455" lon="2.56336">
        <ele>568</ele>
        <time>2013-06-26T18:31:48Z</time>
      </trkpt>
      <trkpt lat="44.39441" lon="2.56349">
        <ele>569</ele>
        <time>2013-06-26T18:31:55Z</time>
      </trkpt>
      <trkpt lat="44.39432" lon="2.56357">
        <ele>569</ele>
        <time>2013-06-26T18:31:59Z</time>
      </trkpt>
      <trkpt lat="44.39419" lon="2.56371">
        <ele>569</ele>
        <time>2013-06-26T18:32:05Z</time>
      </trkpt>
      <trkpt lat="44.39409" lon="2.56381">
        <ele>571</ele>
        <time>2013-06-26T18:32:10Z</time>
      </trkpt>
      <trkpt lat="44.39397" lon="2.56394">
        <ele>571</ele>
        <time>2013-06-26T18:32:16Z</time>
      </trkpt>
      <trkpt lat="44.39386" lon="2.56404">
        <ele>571</ele>
        <time>2013-06-26T18:32:21Z</time>
      </trkpt>
      <trkpt lat="44.39373" lon="2.56417">
        <ele>572</ele>
        <time>2013-06-26T18:32:27Z</time>
      </trkpt>
      <trkpt lat="44.39361" lon="2.5643">
        <ele>572</ele>
        <time>2013-06-26T18:32:33Z</time>
      </trkpt>
      <trkpt lat="44.39347" lon="2.56444">
        <ele>571</ele>
        <time>2013-06-26T18:32:40Z</time>
      </trkpt>
      <trkpt lat="44.39335" lon="2.56453">
        <ele>571</ele>
        <time>2013-06-26T18:32:45Z</time>
      </trkpt>
      <trkpt lat="44.39321" lon="2.56468">
        <ele>569</ele>
        <time>2013-06-26T18:32:52Z</time>
      </trkpt>
      <trkpt lat="44.39304" lon="2.56483">
        <ele>568</ele>
        <time>2013-06-26T18:32:59Z</time>
      </trkpt>
      <trkpt lat="44.39289" lon="2.56499">
        <ele>568</ele>
        <time>2013-06-26T18:33:06Z</time>
      </trkpt>
      <trkpt lat="44.39277" lon="2.56511">
        <ele>568</ele>
        <time>2013-06-26T18:33:11Z</time>
      </trkpt>
      <trkpt lat="44.39268" lon="2.56524">
        <ele>567</ele>
        <time>2013-06-26T18:33:16Z</time>
      </trkpt>
      <trkpt lat="44.39259" lon="2.56539">
        <ele>568</ele>
        <time>2013-06-26T18:33:21Z</time>
      </trkpt>
      <trkpt lat="44.39253" lon="2.56554">
        <ele>568</ele>
        <time>2013-06-26T18:33:26Z</time>
      </trkpt>
      <trkpt lat="44.39244" lon="2.56567">
        <ele>565</ele>
        <time>2013-06-26T18:33:31Z</time>
      </trkpt>
      <trkpt lat="44.39231" lon="2.56578">
        <ele>565</ele>
        <time>2013-06-26T18:33:37Z</time>
      </trkpt>
      <trkpt lat="44.39229" lon="2.56579">
        <ele>565</ele>
        <time>2013-06-26T18:33:38Z</time>
      </trkpt>
      <trkpt lat="44.39214" lon="2.56589">
        <ele>564</ele>
        <time>2013-06-26T18:33:44Z</time>
      </trkpt>
      <trkpt lat="44.3921" lon="2.56592">
        <ele>563</ele>
        <time>2013-06-26T18:33:46Z</time>
      </trkpt>
      <trkpt lat="44.3921" lon="2.56592">
        <ele>563</ele>
        <time>2013-06-26T18:33:46Z</time>
      </trkpt>
      <trkpt lat="44.39198" lon="2.56599">
        <ele>563</ele>
        <time>2013-06-26T18:33:51Z</time>
      </trkpt>
      <trkpt lat="44.39183" lon="2.56605">
        <ele>562</ele>
        <time>2013-06-26T18:33:57Z</time>
      </trkpt>
      <trkpt lat="44.39175" lon="2.56601">
        <ele>562</ele>
        <time>2013-06-26T18:34:02Z</time>
      </trkpt>
      <trkpt lat="44.3917" lon="2.566">
        <ele>562</ele>
        <time>2013-06-26T18:34:04Z</time>
      </trkpt>
      <trkpt lat="44.39156" lon="2.56599">
        <ele>559</ele>
        <time>2013-06-26T18:34:09Z</time>
      </trkpt>
      <trkpt lat="44.39143" lon="2.56604">
        <ele>558</ele>
        <time>2013-06-26T18:34:14Z</time>
      </trkpt>
      <trkpt lat="44.39133" lon="2.56606">
        <ele>558</ele>
        <time>2013-06-26T18:34:17Z</time>
      </trkpt>
      <trkpt lat="44.39118" lon="2.56614">
        <ele>557</ele>
        <time>2013-06-26T18:34:23Z</time>
      </trkpt>
      <trkpt lat="44.39106" lon="2.56621">
        <ele>557</ele>
        <time>2013-06-26T18:34:28Z</time>
      </trkpt>
      <trkpt lat="44.39092" lon="2.56628">
        <ele>557</ele>
        <time>2013-06-26T18:34:34Z</time>
      </trkpt>
      <trkpt lat="44.3908" lon="2.56631">
        <ele>553</ele>
        <time>2013-06-26T18:34:39Z</time>
      </trkpt>
      <trkpt lat="44.39068" lon="2.56633">
        <ele>553</ele>
        <time>2013-06-26T18:34:44Z</time>
      </trkpt>
      <trkpt lat="44.39051" lon="2.56634">
        <ele>553</ele>
        <time>2013-06-26T18:34:50Z</time>
      </trkpt>
      <trkpt lat="44.39032" lon="2.56635">
        <ele>552</ele>
        <time>2013-06-26T18:34:57Z</time>
      </trkpt>
      <trkpt lat="44.39013" lon="2.56635">
        <ele>552</ele>
        <time>2013-06-26T18:35:04Z</time>
      </trkpt>
      <trkpt lat="44.39" lon="2.56634">
        <ele>550</ele>
        <time>2013-06-26T18:35:09Z</time>
      </trkpt>
      <trkpt lat="44.3898" lon="2.56632">
        <ele>550</ele>
        <time>2013-06-26T18:35:16Z</time>
      </trkpt>
      <trkpt lat="44.3896" lon="2.5663">
        <ele>550</ele>
        <time>2013-06-26T18:35:23Z</time>
      </trkpt>
      <trkpt lat="44.38943" lon="2.56628">
        <ele>550</ele>
        <time>2013-06-26T18:35:29Z</time>
      </trkpt>
      <trkpt lat="44.38931" lon="2.56628">
        <ele>550</ele>
        <time>2013-06-26T18:35:34Z</time>
      </trkpt>
      <trkpt lat="44.38919" lon="2.56627">
        <ele>550</ele>
        <time>2013-06-26T18:35:39Z</time>
      </trkpt>
      <trkpt lat="44.38908" lon="2.56626">
        <ele>551</ele>
        <time>2013-06-26T18:35:43Z</time>
      </trkpt>
      <trkpt lat="44.38895" lon="2.56624">
        <ele>551</ele>
        <time>2013-06-26T18:35:48Z</time>
      </trkpt>
      <trkpt lat="44.38881" lon="2.56621">
        <ele>552</ele>
        <time>2013-06-26T18:35:53Z</time>
      </trkpt>
      <trkpt lat="44.38863" lon="2.5662">
        <ele>552</ele>
        <time>2013-06-26T18:36:00Z</time>
      </trkpt>
      <trkpt lat="44.38849" lon="2.56618">
        <ele>553</ele>
        <time>2013-06-26T18:36:05Z</time>
      </trkpt>
      <trkpt lat="44.38836" lon="2.56617">
        <ele>553</ele>
        <time>2013-06-26T18:36:10Z</time>
      </trkpt>
      <trkpt lat="44.38815" lon="2.56616">
        <ele>555</ele>
        <time>2013-06-26T18:36:18Z</time>
      </trkpt>
      <trkpt lat="44.388" lon="2.56616">
        <ele>555</ele>
        <time>2013-06-26T18:36:23Z</time>
      </trkpt>
      <trkpt lat="44.38784" lon="2.56618">
        <ele>555</ele>
        <time>2013-06-26T18:36:29Z</time>
      </trkpt>
      <trkpt lat="44.3877" lon="2.56621">
        <ele>555</ele>
        <time>2013-06-26T18:36:34Z</time>
      </trkpt>
      <trkpt lat="44.38755" lon="2.56623">
        <ele>555</ele>
        <time>2013-06-26T18:36:39Z</time>
      </trkpt>
      <trkpt lat="44.38742" lon="2.56626">
        <ele>555</ele>
        <time>2013-06-26T18:36:44Z</time>
      </trkpt>
      <trkpt lat="44.38726" lon="2.56631">
        <ele>555</ele>
        <time>2013-06-26T18:36:50Z</time>
      </trkpt>
      <trkpt lat="44.3871" lon="2.56635">
        <ele>555</ele>
        <time>2013-06-26T18:36:56Z</time>
      </trkpt>
      <trkpt lat="44.387" lon="2.56637">
        <ele>555</ele>
        <time>2013-06-26T18:37:00Z</time>
      </trkpt>
      <trkpt lat="44.38685" lon="2.56643">
        <ele>554</ele>
        <time>2013-06-26T18:37:06Z</time>
      </trkpt>
      <trkpt lat="44.3867" lon="2.56647">
        <ele>554</ele>
        <time>2013-06-26T18:37:12Z</time>
      </trkpt>
      <trkpt lat="44.38651" lon="2.56647">
        <ele>555</ele>
        <time>2013-06-26T18:37:19Z</time>
      </trkpt>
      <trkpt lat="44.38637" lon="2.56651">
        <ele>555</ele>
        <time>2013-06-26T18:37:25Z</time>
      </trkpt>
      <trkpt lat="44.38625" lon="2.56655">
        <ele>555</ele>
        <time>2013-06-26T18:37:30Z</time>
      </trkpt>
      <trkpt lat="44.38616" lon="2.5666">
        <ele>555</ele>
        <time>2013-06-26T18:37:34Z</time>
      </trkpt>
      <trkpt lat="44.38603" lon="2.56664">
        <ele>554</ele>
        <time>2013-06-26T18:37:39Z</time>
      </trkpt>
      <trkpt lat="44.3859" lon="2.5667">
        <ele>552</ele>
        <time>2013-06-26T18:37:44Z</time>
      </trkpt>
      <trkpt lat="44.38578" lon="2.56675">
        <ele>552</ele>
        <time>2013-06-26T18:37:49Z</time>
      </trkpt>
      <trkpt lat="44.38562" lon="2.5668">
        <ele>552</ele>
        <time>2013-06-26T18:37:55Z</time>
      </trkpt>
      <trkpt lat="44.38541" lon="2.56687">
        <ele>552</ele>
        <time>2013-06-26T18:38:03Z</time>
      </trkpt>
      <trkpt lat="44.38525" lon="2.56693">
        <ele>552</ele>
        <time>2013-06-26T18:38:10Z</time>
      </trkpt>
      <trkpt lat="44.38511" lon="2.56697">
        <ele>552</ele>
        <time>2013-06-26T18:38:16Z</time>
      </trkpt>
      <trkpt lat="44.385" lon="2.56697">
        <ele>551</ele>
        <time>2013-06-26T18:38:20Z</time>
      </trkpt>
      <trkpt lat="44.38498" lon="2.56696">
        <ele>550</ele>
        <time>2013-06-26T18:38:21Z</time>
      </trkpt>
      <trkpt lat="44.38481" lon="2.567">
        <ele>550</ele>
        <time>2013-06-26T18:38:28Z</time>
      </trkpt>
      <trkpt lat="44.38462" lon="2.56698">
        <ele>550</ele>
        <time>2013-06-26T18:38:34Z</time>
      </trkpt>
      <trkpt lat="44.38441" lon="2.56698">
        <ele>549</ele>
        <time>2013-06-26T18:38:41Z</time>
      </trkpt>
      <trkpt lat="44.38419" lon="2.56697">
        <ele>549</ele>
        <time>2013-06-26T18:38:49Z</time>
      </trkpt>
      <trkpt lat="44.38403" lon="2.56696">
        <ele>550</ele>
        <time>2013-06-26T18:38:55Z</time>
      </trkpt>
      <trkpt lat="44.38383" lon="2.56694">
        <ele>550</ele>
        <time>2013-06-26T18:39:02Z</time>
      </trkpt>
      <trkpt lat="44.38364" lon="2.56694">
        <ele>550</ele>
        <time>2013-06-26T18:39:09Z</time>
      </trkpt>
      <trkpt lat="44.38351" lon="2.56693">
        <ele>550</ele>
        <time>2013-06-26T18:39:14Z</time>
      </trkpt>
      <trkpt lat="44.38336" lon="2.56691">
        <ele>550</ele>
        <time>2013-06-26T18:39:19Z</time>
      </trkpt>
      <trkpt lat="44.38324" lon="2.5669">
        <ele>551</ele>
        <time>2013-06-26T18:39:23Z</time>
      </trkpt>
      <trkpt lat="44.38324" lon="2.5669">
        <ele>551</ele>
        <time>2013-06-26T18:39:23Z</time>
      </trkpt>
      <trkpt lat="44.38321" lon="2.56689">
        <ele>551</ele>
        <time>2013-06-26T18:39:24Z</time>
      </trkpt>
      <trkpt lat="44.38304" lon="2.56688">
        <ele>551</ele>
        <time>2013-06-26T18:39:30Z</time>
      </trkpt>
      <trkpt lat="44.38287" lon="2.56687">
        <ele>551</ele>
        <time>2013-06-26T18:39:36Z</time>
      </trkpt>
      <trkpt lat="44.3827" lon="2.56686">
        <ele>551</ele>
        <time>2013-06-26T18:39:42Z</time>
      </trkpt>
      <trkpt lat="44.38255" lon="2.56684">
        <ele>550</ele>
        <time>2013-06-26T18:39:47Z</time>
      </trkpt>
      <trkpt lat="44.38241" lon="2.56682">
        <ele>550</ele>
        <time>2013-06-26T18:39:52Z</time>
      </trkpt>
      <trkpt lat="44.38223" lon="2.56678">
        <ele>550</ele>
        <time>2013-06-26T18:39:58Z</time>
      </trkpt>
      <trkpt lat="44.38206" lon="2.56676">
        <ele>549</ele>
        <time>2013-06-26T18:40:04Z</time>
      </trkpt>
      <trkpt lat="44.38192" lon="2.56672">
        <ele>549</ele>
        <time>2013-06-26T18:40:09Z</time>
      </trkpt>
      <trkpt lat="44.38178" lon="2.5667">
        <ele>547</ele>
        <time>2013-06-26T18:40:14Z</time>
      </trkpt>
      <trkpt lat="44.38163" lon="2.56667">
        <ele>546</ele>
        <time>2013-06-26T18:40:20Z</time>
      </trkpt>
      <trkpt lat="44.38144" lon="2.56657">
        <ele>548</ele>
        <time>2013-06-26T18:40:27Z</time>
      </trkpt>
      <trkpt lat="44.38128" lon="2.56643">
        <ele>549</ele>
        <time>2013-06-26T18:40:33Z</time>
      </trkpt>
      <trkpt lat="44.38118" lon="2.56635">
        <ele>549</ele>
        <time>2013-06-26T18:40:38Z</time>
      </trkpt>
      <trkpt lat="44.38108" lon="2.56628">
        <ele>550</ele>
        <time>2013-06-26T18:40:43Z</time>
      </trkpt>
      <trkpt lat="44.38094" lon="2.56617">
        <ele>550</ele>
        <time>2013-06-26T18:40:50Z</time>
      </trkpt>
      <trkpt lat="44.38082" lon="2.56609">
        <ele>547</ele>
        <time>2013-06-26T18:40:55Z</time>
      </trkpt>
      <trkpt lat="44.38073" lon="2.56601">
        <ele>547</ele>
        <time>2013-06-26T18:41:00Z</time>
      </trkpt>
      <trkpt lat="44.3806" lon="2.56591">
        <ele>547</ele>
        <time>2013-06-26T18:41:05Z</time>
      </trkpt>
      <trkpt lat="44.38049" lon="2.56584">
        <ele>546</ele>
        <time>2013-06-26T18:41:09Z</time>
      </trkpt>
      <trkpt lat="44.38037" lon="2.56577">
        <ele>552</ele>
        <time>2013-06-26T18:41:14Z</time>
      </trkpt>
      <trkpt lat="44.38029" lon="2.56575">
        <ele>552</ele>
        <time>2013-06-26T18:41:17Z</time>
      </trkpt>
      <trkpt lat="44.38019" lon="2.56573">
        <ele>550</ele>
        <time>2013-06-26T18:41:21Z</time>
      </trkpt>
      <trkpt lat="44.38002" lon="2.56573">
        <ele>548</ele>
        <time>2013-06-26T18:41:27Z</time>
      </trkpt>
      <trkpt lat="44.37987" lon="2.56574">
        <ele>546</ele>
        <time>2013-06-26T18:41:32Z</time>
      </trkpt>
      <trkpt lat="44.37974" lon="2.56575">
        <ele>547</ele>
        <time>2013-06-26T18:41:37Z</time>
      </trkpt>
      <trkpt lat="44.37958" lon="2.56578">
        <ele>546</ele>
        <time>2013-06-26T18:41:43Z</time>
      </trkpt>
      <trkpt lat="44.37942" lon="2.56582">
        <ele>545</ele>
        <time>2013-06-26T18:41:49Z</time>
      </trkpt>
      <trkpt lat="44.37929" lon="2.56581">
        <ele>544</ele>
        <time>2013-06-26T18:41:53Z</time>
      </trkpt>
      <trkpt lat="44.37917" lon="2.56583">
        <ele>541</ele>
        <time>2013-06-26T18:41:58Z</time>
      </trkpt>
      <trkpt lat="44.37905" lon="2.56584">
        <ele>544</ele>
        <time>2013-06-26T18:42:03Z</time>
      </trkpt>
      <trkpt lat="44.37898" lon="2.56582">
        <ele>542</ele>
        <time>2013-06-26T18:42:06Z</time>
      </trkpt>
      <trkpt lat="44.37889" lon="2.56583">
        <ele>542</ele>
        <time>2013-06-26T18:42:10Z</time>
      </trkpt>
      <trkpt lat="44.37873" lon="2.56578">
        <ele>542</ele>
        <time>2013-06-26T18:42:17Z</time>
      </trkpt>
      <trkpt lat="44.3786" lon="2.56573">
        <ele>543</ele>
        <time>2013-06-26T18:42:22Z</time>
      </trkpt>
      <trkpt lat="44.37842" lon="2.56567">
        <ele>543</ele>
        <time>2013-06-26T18:42:29Z</time>
      </trkpt>
      <trkpt lat="44.37829" lon="2.56562">
        <ele>542</ele>
        <time>2013-06-26T18:42:34Z</time>
      </trkpt>
      <trkpt lat="44.37812" lon="2.56556">
        <ele>541</ele>
        <time>2013-06-26T18:42:40Z</time>
      </trkpt>
      <trkpt lat="44.37793" lon="2.56547">
        <ele>541</ele>
        <time>2013-06-26T18:42:47Z</time>
      </trkpt>
      <trkpt lat="44.37778" lon="2.56538">
        <ele>540</ele>
        <time>2013-06-26T18:42:53Z</time>
      </trkpt>
      <trkpt lat="44.37763" lon="2.56534">
        <ele>540</ele>
        <time>2013-06-26T18:42:58Z</time>
      </trkpt>
      <trkpt lat="44.37749" lon="2.56532">
        <ele>540</ele>
        <time>2013-06-26T18:43:03Z</time>
      </trkpt>
      <trkpt lat="44.37734" lon="2.56528">
        <ele>540</ele>
        <time>2013-06-26T18:43:09Z</time>
      </trkpt>
      <trkpt lat="44.37718" lon="2.56523">
        <ele>540</ele>
        <time>2013-06-26T18:43:15Z</time>
      </trkpt>
      <trkpt lat="44.37701" lon="2.56517">
        <ele>539</ele>
        <time>2013-06-26T18:43:21Z</time>
      </trkpt>
      <trkpt lat="44.37689" lon="2.56513">
        <ele>539</ele>
        <time>2013-06-26T18:43:26Z</time>
      </trkpt>
      <trkpt lat="44.37675" lon="2.56508">
        <ele>537</ele>
        <time>2013-06-26T18:43:31Z</time>
      </trkpt>
      <trkpt lat="44.37659" lon="2.56505">
        <ele>536</ele>
        <time>2013-06-26T18:43:37Z</time>
      </trkpt>
      <trkpt lat="44.37643" lon="2.56503">
        <ele>538</ele>
        <time>2013-06-26T18:43:43Z</time>
      </trkpt>
      <trkpt lat="44.37625" lon="2.56505">
        <ele>539</ele>
        <time>2013-06-26T18:43:50Z</time>
      </trkpt>
      <trkpt lat="44.37608" lon="2.56506">
        <ele>539</ele>
        <time>2013-06-26T18:43:56Z</time>
      </trkpt>
      <trkpt lat="44.37595" lon="2.56507">
        <ele>538</ele>
        <time>2013-06-26T18:44:01Z</time>
      </trkpt>
      <trkpt lat="44.37582" lon="2.56511">
        <ele>537</ele>
        <time>2013-06-26T18:44:06Z</time>
      </trkpt>
      <trkpt lat="44.37567" lon="2.56518">
        <ele>538</ele>
        <time>2013-06-26T18:44:12Z</time>
      </trkpt>
      <trkpt lat="44.3755" lon="2.56526">
        <ele>539</ele>
        <time>2013-06-26T18:44:19Z</time>
      </trkpt>
      <trkpt lat="44.37541" lon="2.56533">
        <ele>539</ele>
        <time>2013-06-26T18:44:23Z</time>
      </trkpt>
      <trkpt lat="44.37527" lon="2.56541">
        <ele>539</ele>
        <time>2013-06-26T18:44:28Z</time>
      </trkpt>
      <trkpt lat="44.3751" lon="2.56552">
        <ele>539</ele>
        <time>2013-06-26T18:44:35Z</time>
      </trkpt>
      <trkpt lat="44.37495" lon="2.56563">
        <ele>535</ele>
        <time>2013-06-26T18:44:41Z</time>
      </trkpt>
      <trkpt lat="44.37474" lon="2.56578">
        <ele>534</ele>
        <time>2013-06-26T18:44:50Z</time>
      </trkpt>
      <trkpt lat="44.37462" lon="2.56585">
        <ele>537</ele>
        <time>2013-06-26T18:44:55Z</time>
      </trkpt>
      <trkpt lat="44.37462" lon="2.56585">
        <ele>537</ele>
        <time>2013-06-26T18:44:55Z</time>
      </trkpt>
      <trkpt lat="44.3746" lon="2.56587">
        <ele>537</ele>
        <time>2013-06-26T18:44:56Z</time>
      </trkpt>
      <trkpt lat="44.37445" lon="2.56597">
        <ele>536</ele>
        <time>2013-06-26T18:45:02Z</time>
      </trkpt>
      <trkpt lat="44.37429" lon="2.56609">
        <ele>535</ele>
        <time>2013-06-26T18:45:09Z</time>
      </trkpt>
      <trkpt lat="44.37415" lon="2.56619">
        <ele>530</ele>
        <time>2013-06-26T18:45:15Z</time>
      </trkpt>
      <trkpt lat="44.37403" lon="2.56626">
        <ele>530</ele>
        <time>2013-06-26T18:45:20Z</time>
      </trkpt>
      <trkpt lat="44.37389" lon="2.56636">
        <ele>530</ele>
        <time>2013-06-26T18:45:26Z</time>
      </trkpt>
      <trkpt lat="44.37375" lon="2.56645">
        <ele>530</ele>
        <time>2013-06-26T18:45:32Z</time>
      </trkpt>
      <trkpt lat="44.37363" lon="2.56654">
        <ele>529</ele>
        <time>2013-06-26T18:45:37Z</time>
      </trkpt>
      <trkpt lat="44.37351" lon="2.56662">
        <ele>529</ele>
        <time>2013-06-26T18:45:42Z</time>
      </trkpt>
      <trkpt lat="44.37336" lon="2.56672">
        <ele>530</ele>
        <time>2013-06-26T18:45:48Z</time>
      </trkpt>
      <trkpt lat="44.37325" lon="2.56681">
        <ele>529</ele>
        <time>2013-06-26T18:45:53Z</time>
      </trkpt>
      <trkpt lat="44.37316" lon="2.56687">
        <ele>529</ele>
        <time>2013-06-26T18:45:57Z</time>
      </trkpt>
      <trkpt lat="44.373" lon="2.56698">
        <ele>529</ele>
        <time>2013-06-26T18:46:04Z</time>
      </trkpt>
      <trkpt lat="44.37288" lon="2.56705">
        <ele>529</ele>
        <time>2013-06-26T18:46:09Z</time>
      </trkpt>
      <trkpt lat="44.37272" lon="2.56716">
        <ele>529</ele>
        <time>2013-06-26T18:46:16Z</time>
      </trkpt>
      <trkpt lat="44.37256" lon="2.56727">
        <ele>529</ele>
        <time>2013-06-26T18:46:23Z</time>
      </trkpt>
      <trkpt lat="44.37241" lon="2.56736">
        <ele>529</ele>
        <time>2013-06-26T18:46:29Z</time>
      </trkpt>
      <trkpt lat="44.37235" lon="2.56741">
        <ele>529</ele>
        <time>2013-06-26T18:46:32Z</time>
      </trkpt>
      <trkpt lat="44.3722" lon="2.56751">
        <ele>529</ele>
        <time>2013-06-26T18:46:38Z</time>
      </trkpt>
      <trkpt lat="44.37205" lon="2.56763">
        <ele>529</ele>
        <time>2013-06-26T18:46:45Z</time>
      </trkpt>
      <trkpt lat="44.37185" lon="2.56776">
        <ele>528</ele>
        <time>2013-06-26T18:46:53Z</time>
      </trkpt>
      <trkpt lat="44.37166" lon="2.5679">
        <ele>527</ele>
        <time>2013-06-26T18:47:01Z</time>
      </trkpt>
      <trkpt lat="44.37151" lon="2.56801">
        <ele>527</ele>
        <time>2013-06-26T18:47:07Z</time>
      </trkpt>
      <trkpt lat="44.37137" lon="2.5681">
        <ele>527</ele>
        <time>2013-06-26T18:47:13Z</time>
      </trkpt>
      <trkpt lat="44.37125" lon="2.56818">
        <ele>527</ele>
        <time>2013-06-26T18:47:18Z</time>
      </trkpt>
      <trkpt lat="44.37113" lon="2.56826">
        <ele>526</ele>
        <time>2013-06-26T18:47:23Z</time>
      </trkpt>
      <trkpt lat="44.371" lon="2.56837">
        <ele>526</ele>
        <time>2013-06-26T18:47:29Z</time>
      </trkpt>
      <trkpt lat="44.37085" lon="2.56847">
        <ele>526</ele>
        <time>2013-06-26T18:47:35Z</time>
      </trkpt>
      <trkpt lat="44.37073" lon="2.56855">
        <ele>525</ele>
        <time>2013-06-26T18:47:40Z</time>
      </trkpt>
      <trkpt lat="44.37065" lon="2.56863">
        <ele>526</ele>
        <time>2013-06-26T18:47:44Z</time>
      </trkpt>
      <trkpt lat="44.37049" lon="2.56875">
        <ele>526</ele>
        <time>2013-06-26T18:47:51Z</time>
      </trkpt>
      <trkpt lat="44.37034" lon="2.56885">
        <ele>526</ele>
        <time>2013-06-26T18:47:57Z</time>
      </trkpt>
      <trkpt lat="44.37022" lon="2.56892">
        <ele>525</ele>
        <time>2013-06-26T18:48:02Z</time>
      </trkpt>
      <trkpt lat="44.3701" lon="2.56901">
        <ele>525</ele>
        <time>2013-06-26T18:48:07Z</time>
      </trkpt>
      <trkpt lat="44.36994" lon="2.56914">
        <ele>525</ele>
        <time>2013-06-26T18:48:14Z</time>
      </trkpt>
      <trkpt lat="44.36978" lon="2.56929">
        <ele>526</ele>
        <time>2013-06-26T18:48:21Z</time>
      </trkpt>
      <trkpt lat="44.36967" lon="2.56936">
        <ele>526</ele>
        <time>2013-06-26T18:48:26Z</time>
      </trkpt>
      <trkpt lat="44.3696" lon="2.56927">
        <ele>526</ele>
        <time>2013-06-26T18:48:30Z</time>
      </trkpt>
      <trkpt lat="44.36952" lon="2.56907">
        <ele>525</ele>
        <time>2013-06-26T18:48:36Z</time>
      </trkpt>
      <trkpt lat="44.36945" lon="2.5689">
        <ele>525</ele>
        <time>2013-06-26T18:48:41Z</time>
      </trkpt>
      <trkpt lat="44.36937" lon="2.56871">
        <ele>525</ele>
        <time>2013-06-26T18:48:47Z</time>
      </trkpt>
      <trkpt lat="44.36932" lon="2.56862">
        <ele>525</ele>
        <time>2013-06-26T18:48:50Z</time>
      </trkpt>
      <trkpt lat="44.36922" lon="2.5686">
        <ele>525</ele>
        <time>2013-06-26T18:48:54Z</time>
      </trkpt>
      <trkpt lat="44.36916" lon="2.56863">
        <ele>524</ele>
        <time>2013-06-26T18:48:56Z</time>
      </trkpt>
      <trkpt lat="44.36908" lon="2.56869">
        <ele>524</ele>
        <time>2013-06-26T18:49:00Z</time>
      </trkpt>
      <trkpt lat="44.36891" lon="2.5687">
        <ele>524</ele>
        <time>2013-06-26T18:49:06Z</time>
      </trkpt>
      <trkpt lat="44.36879" lon="2.56864">
        <ele>524</ele>
        <time>2013-06-26T18:49:11Z</time>
      </trkpt>
      <trkpt lat="44.36876" lon="2.56864">
        <ele>524</ele>
        <time>2013-06-26T18:49:14Z</time>
      </trkpt>
      <trkpt lat="44.36869" lon="2.56866">
        <ele>524</ele>
        <time>2013-06-26T18:49:18Z</time>
      </trkpt>
      <trkpt lat="44.36859" lon="2.56872">
        <ele>524</ele>
        <time>2013-06-26T18:49:23Z</time>
      </trkpt>
      <trkpt lat="44.36846" lon="2.56876">
        <ele>523</ele>
        <time>2013-06-26T18:49:28Z</time>
      </trkpt>
      <trkpt lat="44.36832" lon="2.5688">
        <ele>523</ele>
        <time>2013-06-26T18:49:33Z</time>
      </trkpt>
      <trkpt lat="44.36814" lon="2.56884">
        <ele>523</ele>
        <time>2013-06-26T18:49:39Z</time>
      </trkpt>
      <trkpt lat="44.36794" lon="2.56889">
        <ele>523</ele>
        <time>2013-06-26T18:49:46Z</time>
      </trkpt>
      <trkpt lat="44.36781" lon="2.5689">
        <ele>523</ele>
        <time>2013-06-26T18:49:51Z</time>
      </trkpt>
      <trkpt lat="44.36768" lon="2.56887">
        <ele>523</ele>
        <time>2013-06-26T18:49:56Z</time>
      </trkpt>
      <trkpt lat="44.36756" lon="2.56885">
        <ele>523</ele>
        <time>2013-06-26T18:50:01Z</time>
      </trkpt>
      <trkpt lat="44.36745" lon="2.56884">
        <ele>526</ele>
        <time>2013-06-26T18:50:05Z</time>
      </trkpt>
      <trkpt lat="44.36734" lon="2.5688">
        <ele>526</ele>
        <time>2013-06-26T18:50:09Z</time>
      </trkpt>
      <trkpt lat="44.36718" lon="2.56878">
        <ele>526</ele>
        <time>2013-06-26T18:50:15Z</time>
      </trkpt>
      <trkpt lat="44.36706" lon="2.56872">
        <ele>527</ele>
        <time>2013-06-26T18:50:20Z</time>
      </trkpt>
      <trkpt lat="44.36691" lon="2.56861">
        <ele>527</ele>
        <time>2013-06-26T18:50:26Z</time>
      </trkpt>
      <trkpt lat="44.36676" lon="2.56841">
        <ele>528</ele>
        <time>2013-06-26T18:50:35Z</time>
      </trkpt>
      <trkpt lat="44.36671" lon="2.56829">
        <ele>527</ele>
        <time>2013-06-26T18:50:38Z</time>
      </trkpt>
      <trkpt lat="44.36671" lon="2.56829">
        <ele>527</ele>
        <time>2013-06-26T18:50:38Z</time>
      </trkpt>
      <trkpt lat="44.36668" lon="2.56822">
        <ele>527</ele>
        <time>2013-06-26T18:50:40Z</time>
      </trkpt>
      <trkpt lat="44.36659" lon="2.56806">
        <ele>527</ele>
        <time>2013-06-26T18:50:45Z</time>
      </trkpt>
      <trkpt lat="44.36648" lon="2.56792">
        <ele>527</ele>
        <time>2013-06-26T18:50:51Z</time>
      </trkpt>
      <trkpt lat="44.36636" lon="2.56786">
        <ele>527</ele>
        <time>2013-06-26T18:50:56Z</time>
      </trkpt>
      <trkpt lat="44.36625" lon="2.56781">
        <ele>527</ele>
        <time>2013-06-26T18:51:01Z</time>
      </trkpt>
      <trkpt lat="44.36615" lon="2.56778">
        <ele>527</ele>
        <time>2013-06-26T18:51:05Z</time>
      </trkpt>
      <trkpt lat="44.36602" lon="2.56774">
        <ele>527</ele>
        <time>2013-06-26T18:51:10Z</time>
      </trkpt>
      <trkpt lat="44.36596" lon="2.56772">
        <ele>527</ele>
        <time>2013-06-26T18:51:12Z</time>
      </trkpt>
      <trkpt lat="44.36584" lon="2.56762">
        <ele>526</ele>
        <time>2013-06-26T18:51:17Z</time>
      </trkpt>
      <trkpt lat="44.36589" lon="2.56746">
        <ele>526</ele>
        <time>2013-06-26T18:51:22Z</time>
      </trkpt>
      <trkpt lat="44.36596" lon="2.56734">
        <ele>527</ele>
        <time>2013-06-26T18:51:26Z</time>
      </trkpt>
      <trkpt lat="44.36603" lon="2.56718">
        <ele>527</ele>
        <time>2013-06-26T18:51:31Z</time>
      </trkpt>
      <trkpt lat="44.36607" lon="2.56702">
        <ele>528</ele>
        <time>2013-06-26T18:51:36Z</time>
      </trkpt>
      <trkpt lat="44.36612" lon="2.56685">
        <ele>528</ele>
        <time>2013-06-26T18:51:41Z</time>
      </trkpt>
      <trkpt lat="44.36612" lon="2.5667">
        <ele>529</ele>
        <time>2013-06-26T18:51:45Z</time>
      </trkpt>
      <trkpt lat="44.36614" lon="2.56657">
        <ele>531</ele>
        <time>2013-06-26T18:51:51Z</time>
      </trkpt>
      <trkpt lat="44.36609" lon="2.56642">
        <ele>532</ele>
        <time>2013-06-26T18:51:58Z</time>
      </trkpt>
      <trkpt lat="44.36604" lon="2.56632">
        <ele>532</ele>
        <time>2013-06-26T18:52:03Z</time>
      </trkpt>
      <trkpt lat="44.36598" lon="2.5662">
        <ele>532</ele>
        <time>2013-06-26T18:52:07Z</time>
      </trkpt>
      <trkpt lat="44.3659" lon="2.56598">
        <ele>532</ele>
        <time>2013-06-26T18:52:11Z</time>
      </trkpt>
      <trkpt lat="44.36589" lon="2.56589">
        <ele>531</ele>
        <time>2013-06-26T18:52:13Z</time>
      </trkpt>
      <trkpt lat="44.36588" lon="2.56563">
        <ele>533</ele>
        <time>2013-06-26T18:52:19Z</time>
      </trkpt>
      <trkpt lat="44.36588" lon="2.56552">
        <ele>534</ele>
        <time>2013-06-26T18:52:22Z</time>
      </trkpt>
      <trkpt lat="44.36591" lon="2.56534">
        <ele>534</ele>
        <time>2013-06-26T18:52:27Z</time>
      </trkpt>
      <trkpt lat="44.36589" lon="2.56516">
        <ele>533</ele>
        <time>2013-06-26T18:52:31Z</time>
      </trkpt>
      <trkpt lat="44.36589" lon="2.56501">
        <ele>532</ele>
        <time>2013-06-26T18:52:36Z</time>
      </trkpt>
      <trkpt lat="44.36581" lon="2.56486">
        <ele>532</ele>
        <time>2013-06-26T18:52:41Z</time>
      </trkpt>
      <trkpt lat="44.36575" lon="2.56475">
        <ele>533</ele>
        <time>2013-06-26T18:52:45Z</time>
      </trkpt>
      <trkpt lat="44.36571" lon="2.56465">
        <ele>534</ele>
        <time>2013-06-26T18:52:50Z</time>
      </trkpt>
      <trkpt lat="44.36564" lon="2.56451">
        <ele>534</ele>
        <time>2013-06-26T18:52:54Z</time>
      </trkpt>
      <trkpt lat="44.36559" lon="2.56435">
        <ele>535</ele>
        <time>2013-06-26T18:52:58Z</time>
      </trkpt>
      <trkpt lat="44.36555" lon="2.56421">
        <ele>535</ele>
        <time>2013-06-26T18:53:02Z</time>
      </trkpt>
      <trkpt lat="44.36543" lon="2.56421">
        <ele>535</ele>
        <time>2013-06-26T18:53:06Z</time>
      </trkpt>
      <trkpt lat="44.36537" lon="2.56433">
        <ele>534</ele>
        <time>2013-06-26T18:53:10Z</time>
      </trkpt>
      <trkpt lat="44.36534" lon="2.5644">
        <ele>534</ele>
        <time>2013-06-26T18:53:12Z</time>
      </trkpt>
      <trkpt lat="44.36528" lon="2.56458">
        <ele>534</ele>
        <time>2013-06-26T18:53:18Z</time>
      </trkpt>
      <trkpt lat="44.36527" lon="2.56463">
        <ele>534</ele>
        <time>2013-06-26T18:53:20Z</time>
      </trkpt>
      <trkpt lat="44.36523" lon="2.56469">
        <ele>534</ele>
        <time>2013-06-26T18:53:25Z</time>
      </trkpt>
      <trkpt lat="44.36518" lon="2.56486">
        <ele>534</ele>
        <time>2013-06-26T18:53:31Z</time>
      </trkpt>
      <trkpt lat="44.36512" lon="2.56493">
        <ele>534</ele>
        <time>2013-06-26T18:53:35Z</time>
      </trkpt>
      <trkpt lat="44.36505" lon="2.56509">
        <ele>533</ele>
        <time>2013-06-26T18:53:40Z</time>
      </trkpt>
      <trkpt lat="44.36498" lon="2.56521">
        <ele>533</ele>
        <time>2013-06-26T18:53:45Z</time>
      </trkpt>
      <trkpt lat="44.36488" lon="2.56541">
        <ele>532</ele>
        <time>2013-06-26T18:53:52Z</time>
      </trkpt>
      <trkpt lat="44.36482" lon="2.56554">
        <ele>532</ele>
        <time>2013-06-26T18:53:56Z</time>
      </trkpt>
      <trkpt lat="44.36474" lon="2.56566">
        <ele>532</ele>
        <time>2013-06-26T18:54:00Z</time>
      </trkpt>
      <trkpt lat="44.36464" lon="2.56585">
        <ele>529</ele>
        <time>2013-06-26T18:54:06Z</time>
      </trkpt>
      <trkpt lat="44.36453" lon="2.56604">
        <ele>529</ele>
        <time>2013-06-26T18:54:12Z</time>
      </trkpt>
      <trkpt lat="44.36446" lon="2.56616">
        <ele>529</ele>
        <time>2013-06-26T18:54:16Z</time>
      </trkpt>
      <trkpt lat="44.36432" lon="2.56631">
        <ele>529</ele>
        <time>2013-06-26T18:54:22Z</time>
      </trkpt>
      <trkpt lat="44.3642" lon="2.56641">
        <ele>529</ele>
        <time>2013-06-26T18:54:27Z</time>
      </trkpt>
      <trkpt lat="44.36417" lon="2.56643">
        <ele>529</ele>
        <time>2013-06-26T18:54:28Z</time>
      </trkpt>
      <trkpt lat="44.36403" lon="2.56655">
        <ele>530</ele>
        <time>2013-06-26T18:54:34Z</time>
      </trkpt>
      <trkpt lat="44.36398" lon="2.56663">
        <ele>530</ele>
        <time>2013-06-26T18:54:37Z</time>
      </trkpt>
      <trkpt lat="44.36387" lon="2.56673">
        <ele>528</ele>
        <time>2013-06-26T18:54:42Z</time>
      </trkpt>
      <trkpt lat="44.36378" lon="2.56683">
        <ele>528</ele>
        <time>2013-06-26T18:54:46Z</time>
      </trkpt>
      <trkpt lat="44.36369" lon="2.567">
        <ele>527</ele>
        <time>2013-06-26T18:54:50Z</time>
      </trkpt>
      <trkpt lat="44.36359" lon="2.56714">
        <ele>527</ele>
        <time>2013-06-26T18:54:56Z</time>
      </trkpt>
      <trkpt lat="44.36353" lon="2.56719">
        <ele>527</ele>
        <time>2013-06-26T18:54:59Z</time>
      </trkpt>
      <trkpt lat="44.36337" lon="2.56732">
        <ele>527</ele>
        <time>2013-06-26T18:55:05Z</time>
      </trkpt>
      <trkpt lat="44.36323" lon="2.56747">
        <ele>526</ele>
        <time>2013-06-26T18:55:11Z</time>
      </trkpt>
      <trkpt lat="44.36313" lon="2.56761">
        <ele>524</ele>
        <time>2013-06-26T18:55:16Z</time>
      </trkpt>
      <trkpt lat="44.36298" lon="2.56778">
        <ele>523</ele>
        <time>2013-06-26T18:55:22Z</time>
      </trkpt>
      <trkpt lat="44.36291" lon="2.56794">
        <ele>523</ele>
        <time>2013-06-26T18:55:27Z</time>
      </trkpt>
      <trkpt lat="44.36275" lon="2.56815">
        <ele>522</ele>
        <time>2013-06-26T18:55:34Z</time>
      </trkpt>
      <trkpt lat="44.36262" lon="2.56832">
        <ele>522</ele>
        <time>2013-06-26T18:55:40Z</time>
      </trkpt>
      <trkpt lat="44.36247" lon="2.56849">
        <ele>521</ele>
        <time>2013-06-26T18:55:46Z</time>
      </trkpt>
      <trkpt lat="44.36236" lon="2.56862">
        <ele>521</ele>
        <time>2013-06-26T18:55:51Z</time>
      </trkpt>
      <trkpt lat="44.36226" lon="2.5687">
        <ele>521</ele>
        <time>2013-06-26T18:55:55Z</time>
      </trkpt>
      <trkpt lat="44.36212" lon="2.56873">
        <ele>521</ele>
        <time>2013-06-26T18:56:01Z</time>
      </trkpt>
      <trkpt lat="44.36224" lon="2.56872">
        <ele>521</ele>
        <time>2013-06-26T18:56:05Z</time>
      </trkpt>
      <trkpt lat="44.3623" lon="2.56869">
        <ele>521</ele>
        <time>2013-06-26T18:56:07Z</time>
      </trkpt>
      <trkpt lat="44.36248" lon="2.56853">
        <ele>521</ele>
        <time>2013-06-26T18:56:14Z</time>
      </trkpt>
      <trkpt lat="44.3625" lon="2.5685">
        <ele>520</ele>
        <time>2013-06-26T18:56:15Z</time>
      </trkpt>
      <trkpt lat="44.3625" lon="2.5685">
        <ele>520</ele>
        <time>2013-06-26T18:56:15Z</time>
      </trkpt>
      <trkpt lat="44.36265" lon="2.56835">
        <ele>520</ele>
        <time>2013-06-26T18:56:21Z</time>
      </trkpt>
      <trkpt lat="44.36274" lon="2.56824">
        <ele>522</ele>
        <time>2013-06-26T18:56:25Z</time>
      </trkpt>
      <trkpt lat="44.36282" lon="2.56815">
        <ele>522</ele>
        <time>2013-06-26T18:56:29Z</time>
      </trkpt>
      <trkpt lat="44.36295" lon="2.568">
        <ele>523</ele>
        <time>2013-06-26T18:56:35Z</time>
      </trkpt>
      <trkpt lat="44.363" lon="2.56791">
        <ele>523</ele>
        <time>2013-06-26T18:56:38Z</time>
      </trkpt>
      <trkpt lat="44.36307" lon="2.56781">
        <ele>523</ele>
        <time>2013-06-26T18:56:42Z</time>
      </trkpt>
      <trkpt lat="44.36315" lon="2.56767">
        <ele>524</ele>
        <time>2013-06-26T18:56:47Z</time>
      </trkpt>
      <trkpt lat="44.36327" lon="2.56753">
        <ele>525</ele>
        <time>2013-06-26T18:56:53Z</time>
      </trkpt>
      <trkpt lat="44.36331" lon="2.56742">
        <ele>526</ele>
        <time>2013-06-26T18:56:57Z</time>
      </trkpt>
      <trkpt lat="44.36342" lon="2.5673">
        <ele>527</ele>
        <time>2013-06-26T18:57:02Z</time>
      </trkpt>
      <trkpt lat="44.36348" lon="2.56724">
        <ele>527</ele>
        <time>2013-06-26T18:57:05Z</time>
      </trkpt>
      <trkpt lat="44.36358" lon="2.56721">
        <ele>527</ele>
        <time>2013-06-26T18:57:09Z</time>
      </trkpt>
      <trkpt lat="44.36366" lon="2.56712">
        <ele>527</ele>
        <time>2013-06-26T18:57:13Z</time>
      </trkpt>
      <trkpt lat="44.36376" lon="2.5669">
        <ele>528</ele>
        <time>2013-06-26T18:57:21Z</time>
      </trkpt>
      <trkpt lat="44.36383" lon="2.56681">
        <ele>528</ele>
        <time>2013-06-26T18:57:25Z</time>
      </trkpt>
      <trkpt lat="44.36386" lon="2.5668">
        <ele>528</ele>
        <time>2013-06-26T18:57:27Z</time>
      </trkpt>
      <trkpt lat="44.36394" lon="2.56671">
        <ele>528</ele>
        <time>2013-06-26T18:57:32Z</time>
      </trkpt>
      <trkpt lat="44.36396" lon="2.56669">
        <ele>528</ele>
        <time>2013-06-26T18:57:33Z</time>
      </trkpt>
      <trkpt lat="44.36407" lon="2.56655">
        <ele>530</ele>
        <time>2013-06-26T18:57:40Z</time>
      </trkpt>
      <trkpt lat="44.36405" lon="2.56652">
        <ele>530</ele>
        <time>2013-06-26T18:57:43Z</time>
      </trkpt>
      <trkpt lat="44.36396" lon="2.56658">
        <ele>530</ele>
        <time>2013-06-26T18:57:47Z</time>
      </trkpt>
      <trkpt lat="44.36389" lon="2.56662">
        <ele>530</ele>
        <time>2013-06-26T18:57:50Z</time>
      </trkpt>
      <trkpt lat="44.36373" lon="2.56661">
        <ele>531</ele>
        <time>2013-06-26T18:57:56Z</time>
      </trkpt>
      <trkpt lat="44.36364" lon="2.5665">
        <ele>531</ele>
        <time>2013-06-26T18:58:01Z</time>
      </trkpt>
      <trkpt lat="44.36354" lon="2.56633">
        <ele>531</ele>
        <time>2013-06-26T18:58:07Z</time>
      </trkpt>
      <trkpt lat="44.36342" lon="2.56623">
        <ele>532</ele>
        <time>2013-06-26T18:58:12Z</time>
      </trkpt>
      <trkpt lat="44.36327" lon="2.56618">
        <ele>531</ele>
        <time>2013-06-26T18:58:18Z</time>
      </trkpt>
      <trkpt lat="44.36311" lon="2.56611">
        <ele>531</ele>
        <time>2013-06-26T18:58:24Z</time>
      </trkpt>
      <trkpt lat="44.36303" lon="2.56606">
        <ele>531</ele>
        <time>2013-06-26T18:58:27Z</time>
      </trkpt>
      <trkpt lat="44.36308" lon="2.56605">
        <ele>531</ele>
        <time>2013-06-26T18:58:30Z</time>
      </trkpt>
      <trkpt lat="44.36315" lon="2.56607">
        <ele>531</ele>
        <time>2013-06-26T18:58:32Z</time>
      </trkpt>
      <trkpt lat="44.36336" lon="2.56613">
        <ele>532</ele>
        <time>2013-06-26T18:58:39Z</time>
      </trkpt>
      <trkpt lat="44.36356" lon="2.56619">
        <ele>532</ele>
        <time>2013-06-26T18:58:46Z</time>
      </trkpt>
      <trkpt lat="44.36369" lon="2.56624">
        <ele>531</ele>
        <time>2013-06-26T18:58:51Z</time>
      </trkpt>
      <trkpt lat="44.3638" lon="2.56627">
        <ele>531</ele>
        <time>2013-06-26T18:58:55Z</time>
      </trkpt>
    </trkseg>
  </trk>
</gpx>